<?xml version="1.0" encoding="UTF-8" standalone="no" ?>
<gpx xmlns="http://www.topografix.com/GPX/1/1" creator="" version="1.1" xmlns:xsi="http://www.w3.org/2001/XMLSchema-instance" xsi:schemaLocation="http://www.topografix.com/GPX/1/1 http://www.topografix.com/GPX/1/1/gpx.xsd">
 <trk>
  <name>ACTIVE LOG192513</name>
  <trkseg>
   <trkpt lat="32.735023" lon="35.248108">
    <ele>219.952</ele>
    <time>2010-11-23T17:25:12Z</time>
   </trkpt>
   <trkpt lat="32.735023" lon="35.248108">
    <ele>218.488</ele>
    <time>2010-11-23T17:25:13Z</time>
   </trkpt>
   <trkpt lat="32.735023" lon="35.248108">
    <ele>219.462</ele>
    <time>2010-11-23T17:25:15Z</time>
   </trkpt>
  </trkseg>
 </trk>
 <trk>
  <name>ACTIVE LOG195111</name>
  <trkseg>
   <trkpt lat="32.735096" lon="35.248113">
    <ele>217.761</ele>
    <time>2010-11-23T17:51:11Z</time>
   </trkpt>
   <trkpt lat="32.735078" lon="35.248113">
    <ele>218.868</ele>
    <time>2010-11-23T17:51:58Z</time>
   </trkpt>
   <trkpt lat="32.735079" lon="35.248127">
    <ele>218.670</ele>
    <time>2010-11-23T17:53:12Z</time>
   </trkpt>
   <trkpt lat="32.735075" lon="35.248138">
    <ele>218.710</ele>
    <time>2010-11-23T17:53:53Z</time>
   </trkpt>
   <trkpt lat="32.735034" lon="35.248172">
    <ele>219.676</ele>
    <time>2010-11-23T17:56:08Z</time>
   </trkpt>
   <trkpt lat="32.735035" lon="35.248172">
    <ele>220.785</ele>
    <time>2010-11-23T17:56:10Z</time>
   </trkpt>
   <trkpt lat="32.735033" lon="35.248165">
    <ele>220.655</ele>
    <time>2010-11-23T17:56:44Z</time>
   </trkpt>
   <trkpt lat="32.735013" lon="35.248166">
    <ele>221.099</ele>
    <time>2010-11-23T17:56:52Z</time>
   </trkpt>
   <trkpt lat="32.734902" lon="35.248207">
    <ele>221.537</ele>
    <time>2010-11-23T17:57:00Z</time>
   </trkpt>
   <trkpt lat="32.734662" lon="35.248234">
    <ele>222.147</ele>
    <time>2010-11-23T17:57:15Z</time>
   </trkpt>
   <trkpt lat="32.734580" lon="35.248581">
    <ele>224.333</ele>
    <time>2010-11-23T17:57:31Z</time>
   </trkpt>
   <trkpt lat="32.734765" lon="35.248937">
    <ele>227.137</ele>
    <time>2010-11-23T17:57:48Z</time>
   </trkpt>
   <trkpt lat="32.734952" lon="35.249182">
    <ele>230.227</ele>
    <time>2010-11-23T17:58:01Z</time>
   </trkpt>
   <trkpt lat="32.735188" lon="35.249382">
    <ele>233.431</ele>
    <time>2010-11-23T17:58:15Z</time>
   </trkpt>
   <trkpt lat="32.735508" lon="35.249560">
    <ele>236.289</ele>
    <time>2010-11-23T17:58:32Z</time>
   </trkpt>
   <trkpt lat="32.735703" lon="35.249619">
    <ele>239.357</ele>
    <time>2010-11-23T17:58:42Z</time>
   </trkpt>
   <trkpt lat="32.735996" lon="35.249685">
    <ele>240.761</ele>
    <time>2010-11-23T17:58:58Z</time>
   </trkpt>
   <trkpt lat="32.736322" lon="35.249792">
    <ele>241.968</ele>
    <time>2010-11-23T17:59:16Z</time>
   </trkpt>
   <trkpt lat="32.736392" lon="35.249803">
    <ele>242.042</ele>
    <time>2010-11-23T17:59:20Z</time>
   </trkpt>
   <trkpt lat="32.736436" lon="35.249827">
    <ele>241.601</ele>
    <time>2010-11-23T17:59:25Z</time>
   </trkpt>
   <trkpt lat="32.736566" lon="35.249799">
    <ele>240.841</ele>
    <time>2010-11-23T17:59:36Z</time>
   </trkpt>
   <trkpt lat="32.736565" lon="35.249730">
    <ele>239.676</ele>
    <time>2010-11-23T17:59:42Z</time>
   </trkpt>
   <trkpt lat="32.736530" lon="35.249856">
    <ele>240.720</ele>
    <time>2010-11-23T17:59:53Z</time>
   </trkpt>
   <trkpt lat="32.736458" lon="35.250141">
    <ele>243.306</ele>
    <time>2010-11-23T18:00:08Z</time>
   </trkpt>
   <trkpt lat="32.736447" lon="35.250228">
    <ele>244.087</ele>
    <time>2010-11-23T18:00:20Z</time>
   </trkpt>
   <trkpt lat="32.736449" lon="35.250220">
    <ele>243.763</ele>
    <time>2010-11-23T18:00:21Z</time>
   </trkpt>
   <trkpt lat="32.735932" lon="35.249612">
    <ele>241.631</ele>
    <time>2010-11-23T18:00:33Z</time>
   </trkpt>
   <trkpt lat="32.735932" lon="35.249612">
    <ele>238.118</ele>
    <time>2010-11-23T18:00:38Z</time>
   </trkpt>
   <trkpt lat="32.735932" lon="35.249612">
    <ele>237.964</ele>
    <time>2010-11-23T18:00:39Z</time>
   </trkpt>
   <trkpt lat="32.735932" lon="35.249612">
    <ele>236.151</ele>
    <time>2010-11-23T18:00:43Z</time>
   </trkpt>
   <trkpt lat="32.736425" lon="35.249741">
    <ele>234.495</ele>
    <time>2010-11-23T18:00:47Z</time>
   </trkpt>
   <trkpt lat="32.736705" lon="35.249435">
    <ele>234.530</ele>
    <time>2010-11-23T18:00:51Z</time>
   </trkpt>
   <trkpt lat="32.736676" lon="35.249797">
    <ele>237.541</ele>
    <time>2010-11-23T18:01:06Z</time>
   </trkpt>
   <trkpt lat="32.736554" lon="35.250185">
    <ele>240.276</ele>
    <time>2010-11-23T18:01:21Z</time>
   </trkpt>
   <trkpt lat="32.736479" lon="35.250579">
    <ele>242.107</ele>
    <time>2010-11-23T18:01:36Z</time>
   </trkpt>
   <trkpt lat="32.736603" lon="35.251014">
    <ele>243.435</ele>
    <time>2010-11-23T18:01:52Z</time>
   </trkpt>
   <trkpt lat="32.736718" lon="35.251460">
    <ele>244.873</ele>
    <time>2010-11-23T18:02:07Z</time>
   </trkpt>
   <trkpt lat="32.736809" lon="35.251880">
    <ele>247.382</ele>
    <time>2010-11-23T18:02:23Z</time>
   </trkpt>
   <trkpt lat="32.736862" lon="35.252280">
    <ele>250.260</ele>
    <time>2010-11-23T18:02:39Z</time>
   </trkpt>
   <trkpt lat="32.736899" lon="35.252440">
    <ele>251.174</ele>
    <time>2010-11-23T18:02:48Z</time>
   </trkpt>
   <trkpt lat="32.737027" lon="35.252689">
    <ele>251.574</ele>
    <time>2010-11-23T18:03:03Z</time>
   </trkpt>
   <trkpt lat="32.737226" lon="35.252935">
    <ele>252.424</ele>
    <time>2010-11-23T18:03:17Z</time>
   </trkpt>
   <trkpt lat="32.737303" lon="35.252999">
    <ele>250.456</ele>
    <time>2010-11-23T18:03:20Z</time>
   </trkpt>
   <trkpt lat="32.737522" lon="35.253080">
    <ele>249.673</ele>
    <time>2010-11-23T18:03:25Z</time>
   </trkpt>
   <trkpt lat="32.737717" lon="35.253236">
    <ele>249.511</ele>
    <time>2010-11-23T18:03:30Z</time>
   </trkpt>
   <trkpt lat="32.737901" lon="35.253761">
    <ele>248.520</ele>
    <time>2010-11-23T18:03:41Z</time>
   </trkpt>
   <trkpt lat="32.737829" lon="35.254330">
    <ele>245.185</ele>
    <time>2010-11-23T18:03:50Z</time>
   </trkpt>
   <trkpt lat="32.737814" lon="35.254405">
    <ele>244.606</ele>
    <time>2010-11-23T18:03:51Z</time>
   </trkpt>
   <trkpt lat="32.737742" lon="35.255031">
    <ele>241.357</ele>
    <time>2010-11-23T18:03:58Z</time>
   </trkpt>
   <trkpt lat="32.737576" lon="35.255438">
    <ele>240.158</ele>
    <time>2010-11-23T18:04:03Z</time>
   </trkpt>
   <trkpt lat="32.737435" lon="35.255670">
    <ele>238.306</ele>
    <time>2010-11-23T18:04:06Z</time>
   </trkpt>
   <trkpt lat="32.737215" lon="35.255847">
    <ele>234.355</ele>
    <time>2010-11-23T18:04:09Z</time>
   </trkpt>
   <trkpt lat="32.737143" lon="35.255899">
    <ele>234.292</ele>
    <time>2010-11-23T18:04:10Z</time>
   </trkpt>
   <trkpt lat="32.736972" lon="35.255965">
    <ele>233.645</ele>
    <time>2010-11-23T18:04:12Z</time>
   </trkpt>
   <trkpt lat="32.736451" lon="35.256088">
    <ele>230.484</ele>
    <time>2010-11-23T18:04:18Z</time>
   </trkpt>
   <trkpt lat="32.736361" lon="35.256096">
    <ele>230.349</ele>
    <time>2010-11-23T18:04:19Z</time>
   </trkpt>
   <trkpt lat="32.735984" lon="35.256129">
    <ele>226.613</ele>
    <time>2010-11-23T18:04:23Z</time>
   </trkpt>
   <trkpt lat="32.735886" lon="35.256133">
    <ele>226.362</ele>
    <time>2010-11-23T18:04:24Z</time>
   </trkpt>
   <trkpt lat="32.735520" lon="35.256081">
    <ele>224.266</ele>
    <time>2010-11-23T18:04:28Z</time>
   </trkpt>
   <trkpt lat="32.735190" lon="35.256012">
    <ele>222.669</ele>
    <time>2010-11-23T18:04:32Z</time>
   </trkpt>
   <trkpt lat="32.734958" lon="35.255963">
    <ele>220.080</ele>
    <time>2010-11-23T18:04:35Z</time>
   </trkpt>
   <trkpt lat="32.734876" lon="35.255946">
    <ele>219.116</ele>
    <time>2010-11-23T18:04:36Z</time>
   </trkpt>
   <trkpt lat="32.734658" lon="35.255808">
    <ele>217.088</ele>
    <time>2010-11-23T18:04:39Z</time>
   </trkpt>
   <trkpt lat="32.734197" lon="35.255612">
    <ele>216.105</ele>
    <time>2010-11-23T18:04:47Z</time>
   </trkpt>
   <trkpt lat="32.734171" lon="35.255626">
    <ele>216.038</ele>
    <time>2010-11-23T18:04:48Z</time>
   </trkpt>
   <trkpt lat="32.734094" lon="35.255669">
    <ele>215.705</ele>
    <time>2010-11-23T18:04:59Z</time>
   </trkpt>
   <trkpt lat="32.734094" lon="35.255669">
    <ele>215.936</ele>
    <time>2010-11-23T18:05:03Z</time>
   </trkpt>
   <trkpt lat="32.734094" lon="35.255669">
    <ele>216.644</ele>
    <time>2010-11-23T18:05:10Z</time>
   </trkpt>
   <trkpt lat="32.734094" lon="35.255669">
    <ele>216.947</ele>
    <time>2010-11-23T18:05:16Z</time>
   </trkpt>
   <trkpt lat="32.733862" lon="35.255931">
    <ele>216.477</ele>
    <time>2010-11-23T18:05:24Z</time>
   </trkpt>
   <trkpt lat="32.733474" lon="35.256191">
    <ele>215.026</ele>
    <time>2010-11-23T18:05:36Z</time>
   </trkpt>
   <trkpt lat="32.733325" lon="35.256445">
    <ele>213.195</ele>
    <time>2010-11-23T18:05:46Z</time>
   </trkpt>
   <trkpt lat="32.733320" lon="35.256471">
    <ele>213.342</ele>
    <time>2010-11-23T18:05:47Z</time>
   </trkpt>
   <trkpt lat="32.733314" lon="35.256500">
    <ele>213.413</ele>
    <time>2010-11-23T18:05:49Z</time>
   </trkpt>
   <trkpt lat="32.733222" lon="35.256452">
    <ele>214.374</ele>
    <time>2010-11-23T18:05:53Z</time>
   </trkpt>
   <trkpt lat="32.732993" lon="35.256332">
    <ele>216.850</ele>
    <time>2010-11-23T18:06:09Z</time>
   </trkpt>
   <trkpt lat="32.732796" lon="35.256242">
    <ele>220.169</ele>
    <time>2010-11-23T18:06:21Z</time>
   </trkpt>
   <trkpt lat="32.732686" lon="35.256205">
    <ele>221.521</ele>
    <time>2010-11-23T18:06:28Z</time>
   </trkpt>
   <trkpt lat="32.732544" lon="35.256158">
    <ele>224.938</ele>
    <time>2010-11-23T18:06:38Z</time>
   </trkpt>
   <trkpt lat="32.732352" lon="35.256093">
    <ele>227.092</ele>
    <time>2010-11-23T18:06:51Z</time>
   </trkpt>
   <trkpt lat="32.732163" lon="35.256053">
    <ele>229.642</ele>
    <time>2010-11-23T18:07:05Z</time>
   </trkpt>
   <trkpt lat="32.732149" lon="35.256050">
    <ele>229.865</ele>
    <time>2010-11-23T18:07:06Z</time>
   </trkpt>
   <trkpt lat="32.732097" lon="35.256039">
    <ele>230.357</ele>
    <time>2010-11-23T18:07:10Z</time>
   </trkpt>
   <trkpt lat="32.731967" lon="35.256012">
    <ele>231.332</ele>
    <time>2010-11-23T18:07:22Z</time>
   </trkpt>
   <trkpt lat="32.731736" lon="35.255963">
    <ele>231.986</ele>
    <time>2010-11-23T18:07:35Z</time>
   </trkpt>
   <trkpt lat="32.732348" lon="35.256093">
    <ele>233.489</ele>
    <time>2010-11-23T18:07:51Z</time>
   </trkpt>
   <trkpt lat="32.731617" lon="35.256729">
    <ele>236.199</ele>
    <time>2010-11-23T18:08:07Z</time>
   </trkpt>
   <trkpt lat="32.731393" lon="35.257000">
    <ele>237.256</ele>
    <time>2010-11-23T18:08:22Z</time>
   </trkpt>
   <trkpt lat="32.731042" lon="35.257472">
    <ele>237.544</ele>
    <time>2010-11-23T18:08:41Z</time>
   </trkpt>
   <trkpt lat="32.730956" lon="35.257953">
    <ele>238.038</ele>
    <time>2010-11-23T18:08:57Z</time>
   </trkpt>
   <trkpt lat="32.730931" lon="35.258563">
    <ele>240.655</ele>
    <time>2010-11-23T18:09:17Z</time>
   </trkpt>
   <trkpt lat="32.730925" lon="35.259045">
    <ele>243.362</ele>
    <time>2010-11-23T18:09:33Z</time>
   </trkpt>
   <trkpt lat="32.730939" lon="35.259472">
    <ele>244.568</ele>
    <time>2010-11-23T18:09:48Z</time>
   </trkpt>
   <trkpt lat="32.730813" lon="35.259940">
    <ele>245.752</ele>
    <time>2010-11-23T18:10:05Z</time>
   </trkpt>
   <trkpt lat="32.730709" lon="35.260426">
    <ele>247.867</ele>
    <time>2010-11-23T18:10:24Z</time>
   </trkpt>
   <trkpt lat="32.730663" lon="35.260828">
    <ele>251.057</ele>
    <time>2010-11-23T18:10:40Z</time>
   </trkpt>
   <trkpt lat="32.730571" lon="35.261189">
    <ele>252.625</ele>
    <time>2010-11-23T18:10:55Z</time>
   </trkpt>
   <trkpt lat="32.730361" lon="35.261573">
    <ele>253.365</ele>
    <time>2010-11-23T18:11:10Z</time>
   </trkpt>
   <trkpt lat="32.730117" lon="35.262015">
    <ele>253.988</ele>
    <time>2010-11-23T18:11:26Z</time>
   </trkpt>
   <trkpt lat="32.729831" lon="35.262522">
    <ele>253.959</ele>
    <time>2010-11-23T18:11:43Z</time>
   </trkpt>
   <trkpt lat="32.729614" lon="35.262972">
    <ele>254.269</ele>
    <time>2010-11-23T18:12:01Z</time>
   </trkpt>
   <trkpt lat="32.729405" lon="35.263414">
    <ele>257.406</ele>
    <time>2010-11-23T18:12:19Z</time>
   </trkpt>
   <trkpt lat="32.729152" lon="35.263767">
    <ele>256.439</ele>
    <time>2010-11-23T18:12:33Z</time>
   </trkpt>
   <trkpt lat="32.729026" lon="35.264221">
    <ele>257.952</ele>
    <time>2010-11-23T18:12:49Z</time>
   </trkpt>
   <trkpt lat="32.729143" lon="35.264248">
    <ele>259.858</ele>
    <time>2010-11-23T18:12:56Z</time>
   </trkpt>
   <trkpt lat="32.729394" lon="35.263961">
    <ele>262.242</ele>
    <time>2010-11-23T18:13:12Z</time>
   </trkpt>
   <trkpt lat="32.729636" lon="35.263698">
    <ele>262.926</ele>
    <time>2010-11-23T18:13:27Z</time>
   </trkpt>
   <trkpt lat="32.729885" lon="35.263537">
    <ele>265.514</ele>
    <time>2010-11-23T18:13:41Z</time>
   </trkpt>
   <trkpt lat="32.730156" lon="35.263341">
    <ele>267.534</ele>
    <time>2010-11-23T18:13:56Z</time>
   </trkpt>
   <trkpt lat="32.730422" lon="35.263165">
    <ele>270.056</ele>
    <time>2010-11-23T18:14:12Z</time>
   </trkpt>
   <trkpt lat="32.730571" lon="35.263080">
    <ele>272.939</ele>
    <time>2010-11-23T18:14:26Z</time>
   </trkpt>
   <trkpt lat="32.730604" lon="35.263065">
    <ele>271.068</ele>
    <time>2010-11-23T18:14:56Z</time>
   </trkpt>
   <trkpt lat="32.730603" lon="35.263078">
    <ele>271.041</ele>
    <time>2010-11-23T18:15:33Z</time>
   </trkpt>
   <trkpt lat="32.730593" lon="35.263048">
    <ele>271.609</ele>
    <time>2010-11-23T18:15:55Z</time>
   </trkpt>
   <trkpt lat="32.730600" lon="35.263026">
    <ele>271.925</ele>
    <time>2010-11-23T18:16:10Z</time>
   </trkpt>
   <trkpt lat="32.730606" lon="35.263023">
    <ele>271.595</ele>
    <time>2010-11-23T18:16:19Z</time>
   </trkpt>
   <trkpt lat="32.730548" lon="35.263266">
    <ele>273.071</ele>
    <time>2010-11-23T18:16:29Z</time>
   </trkpt>
   <trkpt lat="32.730543" lon="35.263316">
    <ele>273.671</ele>
    <time>2010-11-23T18:16:35Z</time>
   </trkpt>
   <trkpt lat="32.730481" lon="35.263440">
    <ele>274.357</ele>
    <time>2010-11-23T18:16:44Z</time>
   </trkpt>
   <trkpt lat="32.730414" lon="35.263546">
    <ele>274.093</ele>
    <time>2010-11-23T18:16:49Z</time>
   </trkpt>
   <trkpt lat="32.730246" lon="35.263801">
    <ele>273.194</ele>
    <time>2010-11-23T18:16:59Z</time>
   </trkpt>
   <trkpt lat="32.730207" lon="35.263879">
    <ele>273.028</ele>
    <time>2010-11-23T18:17:01Z</time>
   </trkpt>
   <trkpt lat="32.730026" lon="35.264133">
    <ele>271.361</ele>
    <time>2010-11-23T18:17:09Z</time>
   </trkpt>
   <trkpt lat="32.729908" lon="35.264543">
    <ele>270.833</ele>
    <time>2010-11-23T18:17:20Z</time>
   </trkpt>
   <trkpt lat="32.729917" lon="35.264723">
    <ele>271.371</ele>
    <time>2010-11-23T18:17:25Z</time>
   </trkpt>
   <trkpt lat="32.729988" lon="35.264848">
    <ele>273.501</ele>
    <time>2010-11-23T18:17:41Z</time>
   </trkpt>
   <trkpt lat="32.729978" lon="35.264861">
    <ele>274.434</ele>
    <time>2010-11-23T18:17:43Z</time>
   </trkpt>
   <trkpt lat="32.729994" lon="35.264987">
    <ele>275.300</ele>
    <time>2010-11-23T18:17:49Z</time>
   </trkpt>
   <trkpt lat="32.729968" lon="35.265180">
    <ele>276.138</ele>
    <time>2010-11-23T18:18:01Z</time>
   </trkpt>
   <trkpt lat="32.729951" lon="35.265272">
    <ele>275.793</ele>
    <time>2010-11-23T18:18:16Z</time>
   </trkpt>
   <trkpt lat="32.729941" lon="35.265288">
    <ele>276.495</ele>
    <time>2010-11-23T18:18:19Z</time>
   </trkpt>
   <trkpt lat="32.729920" lon="35.265374">
    <ele>276.095</ele>
    <time>2010-11-23T18:18:23Z</time>
   </trkpt>
   <trkpt lat="32.729916" lon="35.265587">
    <ele>276.356</ele>
    <time>2010-11-23T18:18:30Z</time>
   </trkpt>
   <trkpt lat="32.729849" lon="35.266048">
    <ele>274.548</ele>
    <time>2010-11-23T18:18:44Z</time>
   </trkpt>
   <trkpt lat="32.729822" lon="35.266090">
    <ele>273.742</ele>
    <time>2010-11-23T18:18:46Z</time>
   </trkpt>
   <trkpt lat="32.729821" lon="35.266110">
    <ele>273.217</ele>
    <time>2010-11-23T18:18:47Z</time>
   </trkpt>
   <trkpt lat="32.729842" lon="35.266544">
    <ele>273.978</ele>
    <time>2010-11-23T18:18:59Z</time>
   </trkpt>
   <trkpt lat="32.729790" lon="35.266891">
    <ele>275.004</ele>
    <time>2010-11-23T18:19:07Z</time>
   </trkpt>
   <trkpt lat="32.729477" lon="35.267548">
    <ele>272.952</ele>
    <time>2010-11-23T18:19:21Z</time>
   </trkpt>
   <trkpt lat="32.729402" lon="35.267716">
    <ele>271.572</ele>
    <time>2010-11-23T18:19:24Z</time>
   </trkpt>
   <trkpt lat="32.729265" lon="35.268371">
    <ele>272.644</ele>
    <time>2010-11-23T18:19:41Z</time>
   </trkpt>
   <trkpt lat="32.729247" lon="35.268403">
    <ele>274.121</ele>
    <time>2010-11-23T18:19:43Z</time>
   </trkpt>
   <trkpt lat="32.729063" lon="35.268781">
    <ele>272.487</ele>
    <time>2010-11-23T18:19:55Z</time>
   </trkpt>
   <trkpt lat="32.729001" lon="35.269019">
    <ele>272.445</ele>
    <time>2010-11-23T18:20:00Z</time>
   </trkpt>
   <trkpt lat="32.728855" lon="35.269581">
    <ele>272.328</ele>
    <time>2010-11-23T18:20:10Z</time>
   </trkpt>
   <trkpt lat="32.728826" lon="35.269691">
    <ele>270.209</ele>
    <time>2010-11-23T18:20:12Z</time>
   </trkpt>
   <trkpt lat="32.728777" lon="35.269813">
    <ele>269.745</ele>
    <time>2010-11-23T18:20:14Z</time>
   </trkpt>
   <trkpt lat="32.728705" lon="35.270082">
    <ele>267.773</ele>
    <time>2010-11-23T18:20:18Z</time>
   </trkpt>
   <trkpt lat="32.728709" lon="35.270621">
    <ele>266.208</ele>
    <time>2010-11-23T18:20:28Z</time>
   </trkpt>
   <trkpt lat="32.728724" lon="35.270883">
    <ele>265.484</ele>
    <time>2010-11-23T18:20:33Z</time>
   </trkpt>
   <trkpt lat="32.728817" lon="35.271077">
    <ele>264.762</ele>
    <time>2010-11-23T18:20:37Z</time>
   </trkpt>
   <trkpt lat="32.729135" lon="35.271476">
    <ele>263.630</ele>
    <time>2010-11-23T18:20:48Z</time>
   </trkpt>
   <trkpt lat="32.729231" lon="35.271461">
    <ele>263.785</ele>
    <time>2010-11-23T18:21:02Z</time>
   </trkpt>
   <trkpt lat="32.729338" lon="35.271393">
    <ele>263.716</ele>
    <time>2010-11-23T18:21:40Z</time>
   </trkpt>
   <trkpt lat="32.729367" lon="35.271374">
    <ele>263.648</ele>
    <time>2010-11-23T18:21:41Z</time>
   </trkpt>
   <trkpt lat="32.729922" lon="35.271263">
    <ele>262.802</ele>
    <time>2010-11-23T18:21:55Z</time>
   </trkpt>
   <trkpt lat="32.730196" lon="35.271117">
    <ele>260.991</ele>
    <time>2010-11-23T18:22:02Z</time>
   </trkpt>
   <trkpt lat="32.730442" lon="35.270726">
    <ele>260.704</ele>
    <time>2010-11-23T18:22:14Z</time>
   </trkpt>
   <trkpt lat="32.730509" lon="35.270399">
    <ele>259.700</ele>
    <time>2010-11-23T18:22:23Z</time>
   </trkpt>
   <trkpt lat="32.730590" lon="35.270125">
    <ele>258.948</ele>
    <time>2010-11-23T18:22:30Z</time>
   </trkpt>
   <trkpt lat="32.730828" lon="35.269451">
    <ele>258.790</ele>
    <time>2010-11-23T18:22:43Z</time>
   </trkpt>
   <trkpt lat="32.731051" lon="35.268982">
    <ele>256.302</ele>
    <time>2010-11-23T18:22:55Z</time>
   </trkpt>
   <trkpt lat="32.731104" lon="35.268902">
    <ele>255.493</ele>
    <time>2010-11-23T18:22:57Z</time>
   </trkpt>
   <trkpt lat="32.731306" lon="35.268681">
    <ele>253.612</ele>
    <time>2010-11-23T18:23:05Z</time>
   </trkpt>
   <trkpt lat="32.731417" lon="35.268588">
    <ele>251.803</ele>
    <time>2010-11-23T18:23:08Z</time>
   </trkpt>
   <trkpt lat="32.731441" lon="35.268561">
    <ele>251.349</ele>
    <time>2010-11-23T18:23:09Z</time>
   </trkpt>
   <trkpt lat="32.731584" lon="35.268398">
    <ele>250.216</ele>
    <time>2010-11-23T18:23:14Z</time>
   </trkpt>
   <trkpt lat="32.731861" lon="35.268082">
    <ele>249.317</ele>
    <time>2010-11-23T18:23:26Z</time>
   </trkpt>
   <trkpt lat="32.732014" lon="35.267909">
    <ele>248.054</ele>
    <time>2010-11-23T18:23:32Z</time>
   </trkpt>
   <trkpt lat="32.732041" lon="35.267872">
    <ele>248.132</ele>
    <time>2010-11-23T18:23:33Z</time>
   </trkpt>
   <trkpt lat="32.732191" lon="35.267647">
    <ele>248.332</ele>
    <time>2010-11-23T18:23:38Z</time>
   </trkpt>
   <trkpt lat="32.732511" lon="35.267168">
    <ele>246.628</ele>
    <time>2010-11-23T18:23:50Z</time>
   </trkpt>
   <trkpt lat="32.732539" lon="35.267126">
    <ele>243.159</ele>
    <time>2010-11-23T18:23:51Z</time>
   </trkpt>
   <trkpt lat="32.732564" lon="35.267088">
    <ele>242.950</ele>
    <time>2010-11-23T18:23:52Z</time>
   </trkpt>
   <trkpt lat="32.732587" lon="35.267053">
    <ele>242.371</ele>
    <time>2010-11-23T18:23:53Z</time>
   </trkpt>
   <trkpt lat="32.732683" lon="35.266910">
    <ele>241.068</ele>
    <time>2010-11-23T18:23:57Z</time>
   </trkpt>
   <trkpt lat="32.732709" lon="35.266871">
    <ele>240.482</ele>
    <time>2010-11-23T18:23:58Z</time>
   </trkpt>
   <trkpt lat="32.732792" lon="35.266746">
    <ele>239.208</ele>
    <time>2010-11-23T18:24:01Z</time>
   </trkpt>
   <trkpt lat="32.732982" lon="35.266344">
    <ele>239.646</ele>
    <time>2010-11-23T18:24:11Z</time>
   </trkpt>
   <trkpt lat="32.733005" lon="35.266210">
    <ele>239.324</ele>
    <time>2010-11-23T18:24:14Z</time>
   </trkpt>
   <trkpt lat="32.732901" lon="35.265415">
    <ele>239.646</ele>
    <time>2010-11-23T18:24:30Z</time>
   </trkpt>
   <trkpt lat="32.732885" lon="35.265335">
    <ele>241.353</ele>
    <time>2010-11-23T18:24:32Z</time>
   </trkpt>
   <trkpt lat="32.732901" lon="35.265006">
    <ele>240.643</ele>
    <time>2010-11-23T18:24:40Z</time>
   </trkpt>
   <trkpt lat="32.732940" lon="35.264550">
    <ele>239.705</ele>
    <time>2010-11-23T18:24:49Z</time>
   </trkpt>
   <trkpt lat="32.733013" lon="35.263807">
    <ele>236.362</ele>
    <time>2010-11-23T18:25:00Z</time>
   </trkpt>
   <trkpt lat="32.733026" lon="35.263716">
    <ele>236.302</ele>
    <time>2010-11-23T18:25:01Z</time>
   </trkpt>
   <trkpt lat="32.733220" lon="35.262392">
    <ele>234.324</ele>
    <time>2010-11-23T18:25:16Z</time>
   </trkpt>
   <trkpt lat="32.733263" lon="35.262276">
    <ele>231.801</ele>
    <time>2010-11-23T18:25:18Z</time>
   </trkpt>
   <trkpt lat="32.733319" lon="35.262160">
    <ele>230.381</ele>
    <time>2010-11-23T18:25:22Z</time>
   </trkpt>
   <trkpt lat="32.733384" lon="35.261831">
    <ele>226.362</ele>
    <time>2010-11-23T18:25:30Z</time>
   </trkpt>
   <trkpt lat="32.733393" lon="35.261786">
    <ele>226.441</ele>
    <time>2010-11-23T18:25:31Z</time>
   </trkpt>
   <trkpt lat="32.733421" lon="35.261642">
    <ele>225.582</ele>
    <time>2010-11-23T18:25:34Z</time>
   </trkpt>
   <trkpt lat="32.733449" lon="35.261498">
    <ele>223.364</ele>
    <time>2010-11-23T18:25:37Z</time>
   </trkpt>
   <trkpt lat="32.733457" lon="35.261457">
    <ele>223.020</ele>
    <time>2010-11-23T18:25:38Z</time>
   </trkpt>
   <trkpt lat="32.733557" lon="35.260820">
    <ele>222.856</ele>
    <time>2010-11-23T18:25:52Z</time>
   </trkpt>
   <trkpt lat="32.733558" lon="35.260304">
    <ele>221.030</ele>
    <time>2010-11-23T18:26:05Z</time>
   </trkpt>
   <trkpt lat="32.733594" lon="35.259975">
    <ele>218.291</ele>
    <time>2010-11-23T18:26:13Z</time>
   </trkpt>
   <trkpt lat="32.733748" lon="35.259711">
    <ele>219.255</ele>
    <time>2010-11-23T18:26:22Z</time>
   </trkpt>
   <trkpt lat="32.733818" lon="35.259591">
    <ele>217.956</ele>
    <time>2010-11-23T18:26:26Z</time>
   </trkpt>
   <trkpt lat="32.733924" lon="35.258950">
    <ele>215.771</ele>
    <time>2010-11-23T18:26:45Z</time>
   </trkpt>
   <trkpt lat="32.733919" lon="35.258810">
    <ele>217.448</ele>
    <time>2010-11-23T18:26:48Z</time>
   </trkpt>
   <trkpt lat="32.733893" lon="35.258489">
    <ele>215.842</ele>
    <time>2010-11-23T18:26:57Z</time>
   </trkpt>
   <trkpt lat="32.733728" lon="35.257859">
    <ele>215.244</ele>
    <time>2010-11-23T18:27:14Z</time>
   </trkpt>
   <trkpt lat="32.733697" lon="35.257762">
    <ele>216.476</ele>
    <time>2010-11-23T18:27:17Z</time>
   </trkpt>
   <trkpt lat="32.733499" lon="35.257150">
    <ele>216.138</ele>
    <time>2010-11-23T18:27:32Z</time>
   </trkpt>
   <trkpt lat="32.733376" lon="35.256771">
    <ele>214.929</ele>
    <time>2010-11-23T18:27:41Z</time>
   </trkpt>
   <trkpt lat="32.733341" lon="35.256617">
    <ele>214.303</ele>
    <time>2010-11-23T18:27:44Z</time>
   </trkpt>
   <trkpt lat="32.733459" lon="35.256192">
    <ele>216.460</ele>
    <time>2010-11-23T18:27:55Z</time>
   </trkpt>
   <trkpt lat="32.733652" lon="35.256130">
    <ele>216.797</ele>
    <time>2010-11-23T18:28:01Z</time>
   </trkpt>
   <trkpt lat="32.733998" lon="35.255786">
    <ele>218.971</ele>
    <time>2010-11-23T18:28:14Z</time>
   </trkpt>
   <trkpt lat="32.734039" lon="35.255723">
    <ele>219.050</ele>
    <time>2010-11-23T18:28:16Z</time>
   </trkpt>
   <trkpt lat="32.734204" lon="35.255608">
    <ele>217.273</ele>
    <time>2010-11-23T18:28:20Z</time>
   </trkpt>
   <trkpt lat="32.734408" lon="35.255642">
    <ele>219.604</ele>
    <time>2010-11-23T18:28:27Z</time>
   </trkpt>
   <trkpt lat="32.734723" lon="35.255851">
    <ele>220.974</ele>
    <time>2010-11-23T18:28:36Z</time>
   </trkpt>
   <trkpt lat="32.735266" lon="35.256028">
    <ele>223.322</ele>
    <time>2010-11-23T18:28:58Z</time>
   </trkpt>
   <trkpt lat="32.735465" lon="35.256070">
    <ele>225.917</ele>
    <time>2010-11-23T18:29:11Z</time>
   </trkpt>
   <trkpt lat="32.735465" lon="35.256070">
    <ele>225.451</ele>
    <time>2010-11-23T18:29:37Z</time>
   </trkpt>
   <trkpt lat="32.735579" lon="35.256094">
    <ele>225.952</ele>
    <time>2010-11-23T18:30:45Z</time>
   </trkpt>
   <trkpt lat="32.735607" lon="35.256100">
    <ele>224.853</ele>
    <time>2010-11-23T18:30:47Z</time>
   </trkpt>
   <trkpt lat="32.735776" lon="35.256123">
    <ele>225.215</ele>
    <time>2010-11-23T18:30:54Z</time>
   </trkpt>
   <trkpt lat="32.735866" lon="35.256131">
    <ele>224.790</ele>
    <time>2010-11-23T18:30:58Z</time>
   </trkpt>
   <trkpt lat="32.736200" lon="35.256110">
    <ele>227.117</ele>
    <time>2010-11-23T18:31:17Z</time>
   </trkpt>
   <trkpt lat="32.736320" lon="35.256099">
    <ele>225.435</ele>
    <time>2010-11-23T18:31:43Z</time>
   </trkpt>
   <trkpt lat="32.736377" lon="35.256094">
    <ele>227.093</ele>
    <time>2010-11-23T18:31:46Z</time>
   </trkpt>
   <trkpt lat="32.736629" lon="35.256072">
    <ele>228.946</ele>
    <time>2010-11-23T18:31:59Z</time>
   </trkpt>
   <trkpt lat="32.736856" lon="35.256002">
    <ele>231.338</ele>
    <time>2010-11-23T18:32:09Z</time>
   </trkpt>
   <trkpt lat="32.737099" lon="35.255925">
    <ele>230.870</ele>
    <time>2010-11-23T18:32:19Z</time>
   </trkpt>
   <trkpt lat="32.737112" lon="35.255921">
    <ele>231.205</ele>
    <time>2010-11-23T18:32:20Z</time>
   </trkpt>
   <trkpt lat="32.737320" lon="35.255772">
    <ele>231.130</ele>
    <time>2010-11-23T18:32:30Z</time>
   </trkpt>
   <trkpt lat="32.737334" lon="35.255762">
    <ele>232.995</ele>
    <time>2010-11-23T18:32:43Z</time>
   </trkpt>
   <trkpt lat="32.737496" lon="35.255575">
    <ele>234.085</ele>
    <time>2010-11-23T18:32:56Z</time>
   </trkpt>
   <trkpt lat="32.737811" lon="35.255436">
    <ele>234.520</ele>
    <time>2010-11-23T18:33:07Z</time>
   </trkpt>
   <trkpt lat="32.738054" lon="35.255270">
    <ele>234.356</ele>
    <time>2010-11-23T18:33:16Z</time>
   </trkpt>
   <trkpt lat="32.738170" lon="35.254963">
    <ele>233.759</ele>
    <time>2010-11-23T18:33:26Z</time>
   </trkpt>
   <trkpt lat="32.738387" lon="35.254446">
    <ele>231.868</ele>
    <time>2010-11-23T18:33:40Z</time>
   </trkpt>
   <trkpt lat="32.738474" lon="35.254323">
    <ele>230.397</ele>
    <time>2010-11-23T18:33:45Z</time>
   </trkpt>
   <trkpt lat="32.738513" lon="35.254273">
    <ele>230.007</ele>
    <time>2010-11-23T18:33:47Z</time>
   </trkpt>
   <trkpt lat="32.738376" lon="35.254469">
    <ele>228.815</ele>
    <time>2010-11-23T18:33:58Z</time>
   </trkpt>
   <trkpt lat="32.738356" lon="35.254513">
    <ele>226.239</ele>
    <time>2010-11-23T18:34:00Z</time>
   </trkpt>
   <trkpt lat="32.738608" lon="35.255002">
    <ele>224.122</ele>
    <time>2010-11-23T18:34:09Z</time>
   </trkpt>
   <trkpt lat="32.738619" lon="35.255006">
    <ele>223.622</ele>
    <time>2010-11-23T18:34:10Z</time>
   </trkpt>
   <trkpt lat="32.738839" lon="35.254792">
    <ele>219.961</ele>
    <time>2010-11-23T18:34:20Z</time>
   </trkpt>
   <trkpt lat="32.738877" lon="35.254770">
    <ele>219.452</ele>
    <time>2010-11-23T18:34:21Z</time>
   </trkpt>
   <trkpt lat="32.738940" lon="35.254733">
    <ele>218.412</ele>
    <time>2010-11-23T18:34:23Z</time>
   </trkpt>
   <trkpt lat="32.738961" lon="35.254712">
    <ele>218.743</ele>
    <time>2010-11-23T18:34:33Z</time>
   </trkpt>
   <trkpt lat="32.738966" lon="35.254710">
    <ele>218.758</ele>
    <time>2010-11-23T18:34:55Z</time>
   </trkpt>
   <trkpt lat="32.739029" lon="35.254683">
    <ele>218.349</ele>
    <time>2010-11-23T18:34:59Z</time>
   </trkpt>
   <trkpt lat="32.739203" lon="35.254781">
    <ele>218.327</ele>
    <time>2010-11-23T18:35:06Z</time>
   </trkpt>
   <trkpt lat="32.739263" lon="35.255107">
    <ele>216.158</ele>
    <time>2010-11-23T18:35:21Z</time>
   </trkpt>
   <trkpt lat="32.739239" lon="35.255202">
    <ele>215.796</ele>
    <time>2010-11-23T18:35:24Z</time>
   </trkpt>
   <trkpt lat="32.739344" lon="35.255395">
    <ele>215.183</ele>
    <time>2010-11-23T18:35:32Z</time>
   </trkpt>
   <trkpt lat="32.739352" lon="35.255444">
    <ele>215.500</ele>
    <time>2010-11-23T18:35:34Z</time>
   </trkpt>
   <trkpt lat="32.739407" lon="35.255701">
    <ele>214.658</ele>
    <time>2010-11-23T18:35:42Z</time>
   </trkpt>
   <trkpt lat="32.739467" lon="35.255809">
    <ele>214.182</ele>
    <time>2010-11-23T18:35:46Z</time>
   </trkpt>
   <trkpt lat="32.739740" lon="35.256211">
    <ele>213.230</ele>
    <time>2010-11-23T18:36:02Z</time>
   </trkpt>
   <trkpt lat="32.739848" lon="35.256308">
    <ele>213.392</ele>
    <time>2010-11-23T18:36:06Z</time>
   </trkpt>
   <trkpt lat="32.739918" lon="35.256354">
    <ele>212.971</ele>
    <time>2010-11-23T18:36:08Z</time>
   </trkpt>
   <trkpt lat="32.740193" lon="35.256467">
    <ele>211.130</ele>
    <time>2010-11-23T18:36:19Z</time>
   </trkpt>
   <trkpt lat="32.740280" lon="35.256320">
    <ele>211.951</ele>
    <time>2010-11-23T18:36:25Z</time>
   </trkpt>
   <trkpt lat="32.740301" lon="35.256271">
    <ele>212.868</ele>
    <time>2010-11-23T18:36:27Z</time>
   </trkpt>
   <trkpt lat="32.740393" lon="35.256189">
    <ele>212.653</ele>
    <time>2010-11-23T18:36:32Z</time>
   </trkpt>
   <trkpt lat="32.740486" lon="35.256174">
    <ele>211.714</ele>
    <time>2010-11-23T18:36:35Z</time>
   </trkpt>
   <trkpt lat="32.740703" lon="35.256138">
    <ele>210.890</ele>
    <time>2010-11-23T18:36:42Z</time>
   </trkpt>
   <trkpt lat="32.740882" lon="35.256165">
    <ele>209.494</ele>
    <time>2010-11-23T18:36:48Z</time>
   </trkpt>
   <trkpt lat="32.741000" lon="35.256187">
    <ele>207.196</ele>
    <time>2010-11-23T18:37:01Z</time>
   </trkpt>
   <trkpt lat="32.741326" lon="35.256204">
    <ele>205.120</ele>
    <time>2010-11-23T18:37:08Z</time>
   </trkpt>
   <trkpt lat="32.741546" lon="35.256178">
    <ele>204.598</ele>
    <time>2010-11-23T18:37:14Z</time>
   </trkpt>
   <trkpt lat="32.741672" lon="35.256162">
    <ele>204.984</ele>
    <time>2010-11-23T18:37:18Z</time>
   </trkpt>
   <trkpt lat="32.741827" lon="35.256143">
    <ele>203.458</ele>
    <time>2010-11-23T18:37:23Z</time>
   </trkpt>
   <trkpt lat="32.742046" lon="35.256117">
    <ele>204.097</ele>
    <time>2010-11-23T18:37:33Z</time>
   </trkpt>
   <trkpt lat="32.742374" lon="35.256231">
    <ele>203.372</ele>
    <time>2010-11-23T18:37:45Z</time>
   </trkpt>
   <trkpt lat="32.742378" lon="35.256281">
    <ele>200.178</ele>
    <time>2010-11-23T18:37:46Z</time>
   </trkpt>
   <trkpt lat="32.742483" lon="35.256536">
    <ele>198.295</ele>
    <time>2010-11-23T18:37:56Z</time>
   </trkpt>
   <trkpt lat="32.742806" lon="35.256629">
    <ele>197.568</ele>
    <time>2010-11-23T18:38:09Z</time>
   </trkpt>
   <trkpt lat="32.742798" lon="35.256642">
    <ele>194.275</ele>
    <time>2010-11-23T18:38:10Z</time>
   </trkpt>
   <trkpt lat="32.742789" lon="35.256657">
    <ele>194.344</ele>
    <time>2010-11-23T18:38:11Z</time>
   </trkpt>
   <trkpt lat="32.742735" lon="35.256744">
    <ele>192.072</ele>
    <time>2010-11-23T18:38:15Z</time>
   </trkpt>
   <trkpt lat="32.742817" lon="35.256764">
    <ele>191.074</ele>
    <time>2010-11-23T18:38:24Z</time>
   </trkpt>
   <trkpt lat="32.742896" lon="35.256746">
    <ele>190.765</ele>
    <time>2010-11-23T18:38:27Z</time>
   </trkpt>
   <trkpt lat="32.743114" lon="35.256625">
    <ele>189.298</ele>
    <time>2010-11-23T18:38:33Z</time>
   </trkpt>
   <trkpt lat="32.743334" lon="35.256479">
    <ele>188.516</ele>
    <time>2010-11-23T18:38:38Z</time>
   </trkpt>
   <trkpt lat="32.743372" lon="35.256630">
    <ele>185.245</ele>
    <time>2010-11-23T18:38:44Z</time>
   </trkpt>
   <trkpt lat="32.743346" lon="35.256659">
    <ele>185.032</ele>
    <time>2010-11-23T18:38:45Z</time>
   </trkpt>
   <trkpt lat="32.743098" lon="35.256857">
    <ele>183.884</ele>
    <time>2010-11-23T18:38:53Z</time>
   </trkpt>
   <trkpt lat="32.742973" lon="35.257000">
    <ele>183.908</ele>
    <time>2010-11-23T18:38:57Z</time>
   </trkpt>
   <trkpt lat="32.742949" lon="35.257096">
    <ele>182.363</ele>
    <time>2010-11-23T18:39:00Z</time>
   </trkpt>
   <trkpt lat="32.742949" lon="35.257096">
    <ele>182.317</ele>
    <time>2010-11-23T18:39:02Z</time>
   </trkpt>
   <trkpt lat="32.743247" lon="35.256929">
    <ele>181.732</ele>
    <time>2010-11-23T18:39:15Z</time>
   </trkpt>
   <trkpt lat="32.743597" lon="35.256680">
    <ele>180.475</ele>
    <time>2010-11-23T18:39:26Z</time>
   </trkpt>
   <trkpt lat="32.743625" lon="35.256661">
    <ele>180.072</ele>
    <time>2010-11-23T18:39:27Z</time>
   </trkpt>
   <trkpt lat="32.743764" lon="35.256672">
    <ele>178.447</ele>
    <time>2010-11-23T18:39:40Z</time>
   </trkpt>
   <trkpt lat="32.743730" lon="35.256695">
    <ele>176.999</ele>
    <time>2010-11-23T18:39:42Z</time>
   </trkpt>
   <trkpt lat="32.743661" lon="35.256768">
    <ele>177.376</ele>
    <time>2010-11-23T18:39:45Z</time>
   </trkpt>
   <trkpt lat="32.743594" lon="35.256861">
    <ele>177.745</ele>
    <time>2010-11-23T18:39:49Z</time>
   </trkpt>
   <trkpt lat="32.743541" lon="35.256933">
    <ele>176.969</ele>
    <time>2010-11-23T18:40:00Z</time>
   </trkpt>
   <trkpt lat="32.743541" lon="35.256933">
    <ele>176.967</ele>
    <time>2010-11-23T18:40:02Z</time>
   </trkpt>
   <trkpt lat="32.743541" lon="35.256933">
    <ele>177.306</ele>
    <time>2010-11-23T18:40:13Z</time>
   </trkpt>
   <trkpt lat="32.743658" lon="35.257117">
    <ele>176.381</ele>
    <time>2010-11-23T18:40:20Z</time>
   </trkpt>
   <trkpt lat="32.743973" lon="35.256789">
    <ele>176.093</ele>
    <time>2010-11-23T18:40:30Z</time>
   </trkpt>
   <trkpt lat="32.744241" lon="35.256533">
    <ele>174.194</ele>
    <time>2010-11-23T18:40:42Z</time>
   </trkpt>
   <trkpt lat="32.744286" lon="35.256490">
    <ele>175.009</ele>
    <time>2010-11-23T18:40:44Z</time>
   </trkpt>
   <trkpt lat="32.744299" lon="35.256478">
    <ele>175.795</ele>
    <time>2010-11-23T18:41:01Z</time>
   </trkpt>
   <trkpt lat="32.744299" lon="35.256478">
    <ele>176.243</ele>
    <time>2010-11-23T18:41:47Z</time>
   </trkpt>
   <trkpt lat="32.744541" lon="35.256026">
    <ele>175.393</ele>
    <time>2010-11-23T18:41:59Z</time>
   </trkpt>
   <trkpt lat="32.744862" lon="35.255567">
    <ele>175.709</ele>
    <time>2010-11-23T18:42:14Z</time>
   </trkpt>
   <trkpt lat="32.745029" lon="35.255133">
    <ele>174.980</ele>
    <time>2010-11-23T18:42:25Z</time>
   </trkpt>
   <trkpt lat="32.745407" lon="35.254051">
    <ele>174.626</ele>
    <time>2010-11-23T18:42:49Z</time>
   </trkpt>
   <trkpt lat="32.745431" lon="35.253981">
    <ele>175.784</ele>
    <time>2010-11-23T18:43:03Z</time>
   </trkpt>
   <trkpt lat="32.745431" lon="35.253981">
    <ele>175.470</ele>
    <time>2010-11-23T18:43:31Z</time>
   </trkpt>
   <trkpt lat="32.745431" lon="35.253981">
    <ele>175.124</ele>
    <time>2010-11-23T18:44:03Z</time>
   </trkpt>
   <trkpt lat="32.745493" lon="35.253704">
    <ele>175.483</ele>
    <time>2010-11-23T18:44:06Z</time>
   </trkpt>
   <trkpt lat="32.745478" lon="35.253581">
    <ele>175.951</ele>
    <time>2010-11-23T18:44:12Z</time>
   </trkpt>
   <trkpt lat="32.745388" lon="35.253121">
    <ele>176.599</ele>
    <time>2010-11-23T18:44:24Z</time>
   </trkpt>
   <trkpt lat="32.745215" lon="35.252831">
    <ele>177.718</ele>
    <time>2010-11-23T18:44:34Z</time>
   </trkpt>
   <trkpt lat="32.744897" lon="35.252419">
    <ele>178.709</ele>
    <time>2010-11-23T18:44:49Z</time>
   </trkpt>
   <trkpt lat="32.744642" lon="35.252226">
    <ele>179.308</ele>
    <time>2010-11-23T18:44:59Z</time>
   </trkpt>
   <trkpt lat="32.744475" lon="35.252138">
    <ele>178.960</ele>
    <time>2010-11-23T18:45:04Z</time>
   </trkpt>
   <trkpt lat="32.744253" lon="35.251941">
    <ele>178.403</ele>
    <time>2010-11-23T18:45:12Z</time>
   </trkpt>
   <trkpt lat="32.744081" lon="35.251710">
    <ele>178.740</ele>
    <time>2010-11-23T18:45:22Z</time>
   </trkpt>
   <trkpt lat="32.743985" lon="35.251536">
    <ele>178.057</ele>
    <time>2010-11-23T18:45:27Z</time>
   </trkpt>
   <trkpt lat="32.743947" lon="35.251466">
    <ele>179.072</ele>
    <time>2010-11-23T18:45:32Z</time>
   </trkpt>
   <trkpt lat="32.743771" lon="35.251184">
    <ele>180.949</ele>
    <time>2010-11-23T18:45:46Z</time>
   </trkpt>
   <trkpt lat="32.743593" lon="35.250926">
    <ele>181.080</ele>
    <time>2010-11-23T18:45:57Z</time>
   </trkpt>
   <trkpt lat="32.743431" lon="35.250685">
    <ele>180.350</ele>
    <time>2010-11-23T18:46:06Z</time>
   </trkpt>
   <trkpt lat="32.743368" lon="35.250565">
    <ele>180.468</ele>
    <time>2010-11-23T18:46:11Z</time>
   </trkpt>
   <trkpt lat="32.743301" lon="35.250436">
    <ele>179.771</ele>
    <time>2010-11-23T18:46:27Z</time>
   </trkpt>
   <trkpt lat="32.743269" lon="35.250375">
    <ele>179.624</ele>
    <time>2010-11-23T18:46:30Z</time>
   </trkpt>
   <trkpt lat="32.743192" lon="35.250227">
    <ele>180.275</ele>
    <time>2010-11-23T18:46:37Z</time>
   </trkpt>
   <trkpt lat="32.743121" lon="35.249990">
    <ele>178.752</ele>
    <time>2010-11-23T18:46:44Z</time>
   </trkpt>
   <trkpt lat="32.743099" lon="35.249844">
    <ele>178.558</ele>
    <time>2010-11-23T18:46:47Z</time>
   </trkpt>
   <trkpt lat="32.743128" lon="35.249750">
    <ele>178.977</ele>
    <time>2010-11-23T18:46:51Z</time>
   </trkpt>
   <trkpt lat="32.743174" lon="35.249679">
    <ele>178.899</ele>
    <time>2010-11-23T18:46:54Z</time>
   </trkpt>
   <trkpt lat="32.743365" lon="35.249364">
    <ele>174.466</ele>
    <time>2010-11-23T18:47:05Z</time>
   </trkpt>
   <trkpt lat="32.743428" lon="35.249290">
    <ele>173.784</ele>
    <time>2010-11-23T18:47:07Z</time>
   </trkpt>
   <trkpt lat="32.743526" lon="35.249176">
    <ele>172.984</ele>
    <time>2010-11-23T18:47:10Z</time>
   </trkpt>
   <trkpt lat="32.743609" lon="35.249064">
    <ele>171.811</ele>
    <time>2010-11-23T18:47:13Z</time>
   </trkpt>
   <trkpt lat="32.743824" lon="35.248452">
    <ele>167.092</ele>
    <time>2010-11-23T18:47:25Z</time>
   </trkpt>
   <trkpt lat="32.743847" lon="35.248406">
    <ele>168.000</ele>
    <time>2010-11-23T18:47:26Z</time>
   </trkpt>
   <trkpt lat="32.743918" lon="35.248310">
    <ele>167.348</ele>
    <time>2010-11-23T18:47:30Z</time>
   </trkpt>
   <trkpt lat="32.744058" lon="35.248121">
    <ele>165.395</ele>
    <time>2010-11-23T18:47:36Z</time>
   </trkpt>
   <trkpt lat="32.744389" lon="35.247967">
    <ele>165.168</ele>
    <time>2010-11-23T18:47:48Z</time>
   </trkpt>
   <trkpt lat="32.744538" lon="35.247916">
    <ele>163.081</ele>
    <time>2010-11-23T18:48:00Z</time>
   </trkpt>
   <trkpt lat="32.744538" lon="35.247916">
    <ele>163.030</ele>
    <time>2010-11-23T18:48:16Z</time>
   </trkpt>
   <trkpt lat="32.744538" lon="35.247916">
    <ele>162.504</ele>
    <time>2010-11-23T18:48:19Z</time>
   </trkpt>
   <trkpt lat="32.744444" lon="35.247756">
    <ele>162.825</ele>
    <time>2010-11-23T18:48:28Z</time>
   </trkpt>
   <trkpt lat="32.744520" lon="35.247575">
    <ele>162.842</ele>
    <time>2010-11-23T18:48:35Z</time>
   </trkpt>
   <trkpt lat="32.745044" lon="35.247100">
    <ele>160.785</ele>
    <time>2010-11-23T18:48:52Z</time>
   </trkpt>
   <trkpt lat="32.745333" lon="35.246837">
    <ele>159.810</ele>
    <time>2010-11-23T18:49:01Z</time>
   </trkpt>
   <trkpt lat="32.745308" lon="35.246580">
    <ele>160.103</ele>
    <time>2010-11-23T18:49:12Z</time>
   </trkpt>
   <trkpt lat="32.745574" lon="35.246189">
    <ele>160.324</ele>
    <time>2010-11-23T18:49:27Z</time>
   </trkpt>
   <trkpt lat="32.745636" lon="35.245691">
    <ele>158.776</ele>
    <time>2010-11-23T18:49:37Z</time>
   </trkpt>
   <trkpt lat="32.745652" lon="35.245043">
    <ele>158.278</ele>
    <time>2010-11-23T18:49:51Z</time>
   </trkpt>
   <trkpt lat="32.745652" lon="35.244724">
    <ele>157.388</ele>
    <time>2010-11-23T18:49:58Z</time>
   </trkpt>
   <trkpt lat="32.745748" lon="35.244186">
    <ele>157.322</ele>
    <time>2010-11-23T18:50:07Z</time>
   </trkpt>
   <trkpt lat="32.745644" lon="35.243086">
    <ele>155.691</ele>
    <time>2010-11-23T18:50:35Z</time>
   </trkpt>
   <trkpt lat="32.745644" lon="35.243086">
    <ele>152.663</ele>
    <time>2010-11-23T18:50:49Z</time>
   </trkpt>
   <trkpt lat="32.745644" lon="35.243086">
    <ele>159.604</ele>
    <time>2010-11-23T18:50:50Z</time>
   </trkpt>
   <trkpt lat="32.745644" lon="35.243086">
    <ele>156.302</ele>
    <time>2010-11-23T18:50:51Z</time>
   </trkpt>
   <trkpt lat="32.745644" lon="35.243086">
    <ele>156.171</ele>
    <time>2010-11-23T18:51:35Z</time>
   </trkpt>
   <trkpt lat="32.745644" lon="35.243086">
    <ele>155.567</ele>
    <time>2010-11-23T18:51:53Z</time>
   </trkpt>
   <trkpt lat="32.745488" lon="35.242958">
    <ele>155.823</ele>
    <time>2010-11-23T18:52:23Z</time>
   </trkpt>
   <trkpt lat="32.745143" lon="35.242539">
    <ele>155.202</ele>
    <time>2010-11-23T18:52:41Z</time>
   </trkpt>
   <trkpt lat="32.745141" lon="35.242518">
    <ele>155.272</ele>
    <time>2010-11-23T18:52:42Z</time>
   </trkpt>
   <trkpt lat="32.745202" lon="35.242403">
    <ele>154.555</ele>
    <time>2010-11-23T18:52:50Z</time>
   </trkpt>
   <trkpt lat="32.745409" lon="35.242429">
    <ele>154.635</ele>
    <time>2010-11-23T18:52:52Z</time>
   </trkpt>
   <trkpt lat="32.745604" lon="35.242453">
    <ele>154.649</ele>
    <time>2010-11-23T18:52:57Z</time>
   </trkpt>
   <trkpt lat="32.745611" lon="35.242112">
    <ele>154.216</ele>
    <time>2010-11-23T18:53:05Z</time>
   </trkpt>
   <trkpt lat="32.745459" lon="35.241887">
    <ele>153.004</ele>
    <time>2010-11-23T18:53:14Z</time>
   </trkpt>
   <trkpt lat="32.745514" lon="35.241806">
    <ele>152.759</ele>
    <time>2010-11-23T18:53:18Z</time>
   </trkpt>
   <trkpt lat="32.745440" lon="35.241663">
    <ele>153.453</ele>
    <time>2010-11-23T18:53:24Z</time>
   </trkpt>
   <trkpt lat="32.744906" lon="35.241132">
    <ele>152.646</ele>
    <time>2010-11-23T18:53:42Z</time>
   </trkpt>
   <trkpt lat="32.744202" lon="35.240355">
    <ele>151.570</ele>
    <time>2010-11-23T18:54:04Z</time>
   </trkpt>
   <trkpt lat="32.743997" lon="35.240086">
    <ele>151.468</ele>
    <time>2010-11-23T18:54:10Z</time>
   </trkpt>
   <trkpt lat="32.743384" lon="35.239286">
    <ele>149.626</ele>
    <time>2010-11-23T18:54:27Z</time>
   </trkpt>
   <trkpt lat="32.742812" lon="35.238393">
    <ele>148.101</ele>
    <time>2010-11-23T18:54:45Z</time>
   </trkpt>
   <trkpt lat="32.742597" lon="35.237952">
    <ele>147.648</ele>
    <time>2010-11-23T18:54:54Z</time>
   </trkpt>
   <trkpt lat="32.742299" lon="35.237267">
    <ele>147.464</ele>
    <time>2010-11-23T18:55:09Z</time>
   </trkpt>
   <trkpt lat="32.741718" lon="35.236427">
    <ele>146.252</ele>
    <time>2010-11-23T18:55:26Z</time>
   </trkpt>
   <trkpt lat="32.741132" lon="35.235660">
    <ele>145.730</ele>
    <time>2010-11-23T18:55:42Z</time>
   </trkpt>
   <trkpt lat="32.740976" lon="35.235454">
    <ele>145.080</ele>
    <time>2010-11-23T18:55:47Z</time>
   </trkpt>
   <trkpt lat="32.740744" lon="35.235151">
    <ele>144.510</ele>
    <time>2010-11-23T18:55:54Z</time>
   </trkpt>
   <trkpt lat="32.739989" lon="35.234161">
    <ele>142.039</ele>
    <time>2010-11-23T18:56:19Z</time>
   </trkpt>
   <trkpt lat="32.739503" lon="35.233461">
    <ele>142.583</ele>
    <time>2010-11-23T18:56:38Z</time>
   </trkpt>
   <trkpt lat="32.739204" lon="35.232783">
    <ele>141.073</ele>
    <time>2010-11-23T18:56:56Z</time>
   </trkpt>
   <trkpt lat="32.739193" lon="35.232704">
    <ele>140.438</ele>
    <time>2010-11-23T18:57:03Z</time>
   </trkpt>
   <trkpt lat="32.739425" lon="35.232107">
    <ele>140.007</ele>
    <time>2010-11-23T18:57:12Z</time>
   </trkpt>
   <trkpt lat="32.740067" lon="35.231454">
    <ele>140.357</ele>
    <time>2010-11-23T18:57:32Z</time>
   </trkpt>
   <trkpt lat="32.740722" lon="35.230785">
    <ele>138.505</ele>
    <time>2010-11-23T18:57:52Z</time>
   </trkpt>
   <trkpt lat="32.741066" lon="35.230398">
    <ele>138.148</ele>
    <time>2010-11-23T18:58:08Z</time>
   </trkpt>
   <trkpt lat="32.741066" lon="35.230398">
    <ele>139.179</ele>
    <time>2010-11-23T18:58:24Z</time>
   </trkpt>
   <trkpt lat="32.741066" lon="35.230398">
    <ele>138.380</ele>
    <time>2010-11-23T18:58:46Z</time>
   </trkpt>
   <trkpt lat="32.741066" lon="35.230398">
    <ele>139.846</ele>
    <time>2010-11-23T18:58:51Z</time>
   </trkpt>
   <trkpt lat="32.741066" lon="35.230398">
    <ele>137.151</ele>
    <time>2010-11-23T18:59:30Z</time>
   </trkpt>
   <trkpt lat="32.741066" lon="35.230398">
    <ele>136.821</ele>
    <time>2010-11-23T19:03:06Z</time>
   </trkpt>
   <trkpt lat="32.741066" lon="35.230398">
    <ele>138.249</ele>
    <time>2010-11-23T19:06:04Z</time>
   </trkpt>
   <trkpt lat="32.741066" lon="35.230398">
    <ele>137.850</ele>
    <time>2010-11-23T19:07:19Z</time>
   </trkpt>
   <trkpt lat="32.741066" lon="35.230398">
    <ele>137.860</ele>
    <time>2010-11-23T19:09:42Z</time>
   </trkpt>
   <trkpt lat="32.741066" lon="35.230398">
    <ele>137.078</ele>
    <time>2010-11-23T19:12:02Z</time>
   </trkpt>
   <trkpt lat="32.741066" lon="35.230398">
    <ele>137.579</ele>
    <time>2010-11-23T19:12:53Z</time>
   </trkpt>
   <trkpt lat="32.741066" lon="35.230398">
    <ele>137.959</ele>
    <time>2010-11-23T19:13:42Z</time>
   </trkpt>
   <trkpt lat="32.741201" lon="35.230247">
    <ele>137.747</ele>
    <time>2010-11-23T19:13:53Z</time>
   </trkpt>
   <trkpt lat="32.741474" lon="35.229980">
    <ele>137.932</ele>
    <time>2010-11-23T19:14:07Z</time>
   </trkpt>
   <trkpt lat="32.741940" lon="35.229528">
    <ele>137.223</ele>
    <time>2010-11-23T19:14:24Z</time>
   </trkpt>
   <trkpt lat="32.742656" lon="35.228832">
    <ele>135.350</ele>
    <time>2010-11-23T19:14:43Z</time>
   </trkpt>
   <trkpt lat="32.743305" lon="35.228215">
    <ele>135.461</ele>
    <time>2010-11-23T19:15:01Z</time>
   </trkpt>
   <trkpt lat="32.743866" lon="35.227588">
    <ele>133.974</ele>
    <time>2010-11-23T19:15:19Z</time>
   </trkpt>
   <trkpt lat="32.744350" lon="35.226897">
    <ele>133.540</ele>
    <time>2010-11-23T19:15:37Z</time>
   </trkpt>
   <trkpt lat="32.744861" lon="35.226051">
    <ele>131.393</ele>
    <time>2010-11-23T19:15:56Z</time>
   </trkpt>
   <trkpt lat="32.745063" lon="35.225681">
    <ele>131.613</ele>
    <time>2010-11-23T19:16:09Z</time>
   </trkpt>
   <trkpt lat="32.745063" lon="35.225681">
    <ele>131.628</ele>
    <time>2010-11-23T19:16:43Z</time>
   </trkpt>
   <trkpt lat="32.745063" lon="35.225681">
    <ele>135.934</ele>
    <time>2010-11-23T19:16:45Z</time>
   </trkpt>
   <trkpt lat="32.745063" lon="35.225681">
    <ele>131.354</ele>
    <time>2010-11-23T19:16:46Z</time>
   </trkpt>
   <trkpt lat="32.745063" lon="35.225681">
    <ele>132.412</ele>
    <time>2010-11-23T19:16:58Z</time>
   </trkpt>
   <trkpt lat="32.745063" lon="35.225681">
    <ele>131.288</ele>
    <time>2010-11-23T19:17:01Z</time>
   </trkpt>
   <trkpt lat="32.745063" lon="35.225681">
    <ele>133.129</ele>
    <time>2010-11-23T19:17:16Z</time>
   </trkpt>
   <trkpt lat="32.745063" lon="35.225681">
    <ele>133.695</ele>
    <time>2010-11-23T19:17:30Z</time>
   </trkpt>
   <trkpt lat="32.745063" lon="35.225681">
    <ele>133.980</ele>
    <time>2010-11-23T19:17:38Z</time>
   </trkpt>
   <trkpt lat="32.745063" lon="35.225681">
    <ele>133.724</ele>
    <time>2010-11-23T19:17:41Z</time>
   </trkpt>
   <trkpt lat="32.745377" lon="35.226040">
    <ele>134.717</ele>
    <time>2010-11-23T19:17:51Z</time>
   </trkpt>
   <trkpt lat="32.745391" lon="35.226330">
    <ele>137.616</ele>
    <time>2010-11-23T19:18:07Z</time>
   </trkpt>
   <trkpt lat="32.745341" lon="35.226594">
    <ele>141.000</ele>
    <time>2010-11-23T19:18:24Z</time>
   </trkpt>
   <trkpt lat="32.745273" lon="35.226823">
    <ele>143.074</ele>
    <time>2010-11-23T19:18:41Z</time>
   </trkpt>
   <trkpt lat="32.745226" lon="35.226980">
    <ele>144.878</ele>
    <time>2010-11-23T19:18:50Z</time>
   </trkpt>
   <trkpt lat="32.745207" lon="35.227042">
    <ele>145.482</ele>
    <time>2010-11-23T19:18:54Z</time>
   </trkpt>
   <trkpt lat="32.745197" lon="35.227075">
    <ele>145.790</ele>
    <time>2010-11-23T19:18:56Z</time>
   </trkpt>
   <trkpt lat="32.745138" lon="35.227274">
    <ele>148.907</ele>
    <time>2010-11-23T19:19:09Z</time>
   </trkpt>
   <trkpt lat="32.745126" lon="35.227516">
    <ele>149.541</ele>
    <time>2010-11-23T19:19:24Z</time>
   </trkpt>
   <trkpt lat="32.745115" lon="35.227563">
    <ele>151.541</ele>
    <time>2010-11-23T19:19:29Z</time>
   </trkpt>
   <trkpt lat="32.745092" lon="35.227663">
    <ele>153.383</ele>
    <time>2010-11-23T19:19:41Z</time>
   </trkpt>
   <trkpt lat="32.745001" lon="35.227947">
    <ele>154.899</ele>
    <time>2010-11-23T19:19:57Z</time>
   </trkpt>
   <trkpt lat="32.744924" lon="35.228159">
    <ele>158.237</ele>
    <time>2010-11-23T19:20:16Z</time>
   </trkpt>
   <trkpt lat="32.744825" lon="35.228431">
    <ele>160.592</ele>
    <time>2010-11-23T19:20:31Z</time>
   </trkpt>
   <trkpt lat="32.744728" lon="35.228700">
    <ele>162.783</ele>
    <time>2010-11-23T19:20:49Z</time>
   </trkpt>
   <trkpt lat="32.744678" lon="35.228838">
    <ele>163.416</ele>
    <time>2010-11-23T19:20:58Z</time>
   </trkpt>
   <trkpt lat="32.744645" lon="35.228928">
    <ele>163.736</ele>
    <time>2010-11-23T19:21:04Z</time>
   </trkpt>
   <trkpt lat="32.744598" lon="35.229205">
    <ele>165.606</ele>
    <time>2010-11-23T19:21:19Z</time>
   </trkpt>
   <trkpt lat="32.744570" lon="35.229466">
    <ele>167.347</ele>
    <time>2010-11-23T19:21:33Z</time>
   </trkpt>
   <trkpt lat="32.744549" lon="35.229742">
    <ele>169.842</ele>
    <time>2010-11-23T19:21:48Z</time>
   </trkpt>
   <trkpt lat="32.744537" lon="35.229991">
    <ele>171.852</ele>
    <time>2010-11-23T19:22:03Z</time>
   </trkpt>
   <trkpt lat="32.744536" lon="35.230143">
    <ele>172.807</ele>
    <time>2010-11-23T19:22:11Z</time>
   </trkpt>
   <trkpt lat="32.744536" lon="35.230278">
    <ele>173.551</ele>
    <time>2010-11-23T19:22:19Z</time>
   </trkpt>
   <trkpt lat="32.744536" lon="35.230319">
    <ele>175.238</ele>
    <time>2010-11-23T19:22:22Z</time>
   </trkpt>
   <trkpt lat="32.744536" lon="35.230423">
    <ele>177.150</ele>
    <time>2010-11-23T19:22:38Z</time>
   </trkpt>
   <trkpt lat="32.744537" lon="35.230752">
    <ele>179.171</ele>
    <time>2010-11-23T19:22:52Z</time>
   </trkpt>
   <trkpt lat="32.744543" lon="35.230812">
    <ele>179.743</ele>
    <time>2010-11-23T19:22:56Z</time>
   </trkpt>
   <trkpt lat="32.744511" lon="35.231114">
    <ele>180.979</ele>
    <time>2010-11-23T19:23:13Z</time>
   </trkpt>
   <trkpt lat="32.744454" lon="35.231350">
    <ele>183.709</ele>
    <time>2010-11-23T19:23:27Z</time>
   </trkpt>
   <trkpt lat="32.744466" lon="35.231522">
    <ele>184.251</ele>
    <time>2010-11-23T19:23:38Z</time>
   </trkpt>
   <trkpt lat="32.744441" lon="35.231808">
    <ele>185.881</ele>
    <time>2010-11-23T19:23:55Z</time>
   </trkpt>
   <trkpt lat="32.744397" lon="35.232099">
    <ele>187.612</ele>
    <time>2010-11-23T19:24:14Z</time>
   </trkpt>
   <trkpt lat="32.744372" lon="35.232200">
    <ele>189.747</ele>
    <time>2010-11-23T19:24:21Z</time>
   </trkpt>
   <trkpt lat="32.744349" lon="35.232256">
    <ele>190.168</ele>
    <time>2010-11-23T19:24:28Z</time>
   </trkpt>
   <trkpt lat="32.744239" lon="35.232516">
    <ele>191.109</ele>
    <time>2010-11-23T19:24:43Z</time>
   </trkpt>
   <trkpt lat="32.744145" lon="35.232808">
    <ele>192.344</ele>
    <time>2010-11-23T19:25:00Z</time>
   </trkpt>
   <trkpt lat="32.744130" lon="35.233061">
    <ele>193.351</ele>
    <time>2010-11-23T19:25:13Z</time>
   </trkpt>
   <trkpt lat="32.744159" lon="35.233133">
    <ele>193.595</ele>
    <time>2010-11-23T19:25:17Z</time>
   </trkpt>
   <trkpt lat="32.744422" lon="35.233645">
    <ele>192.683</ele>
    <time>2010-11-23T19:25:34Z</time>
   </trkpt>
   <trkpt lat="32.744584" lon="35.233934">
    <ele>191.100</ele>
    <time>2010-11-23T19:25:42Z</time>
   </trkpt>
   <trkpt lat="32.745018" lon="35.234523">
    <ele>190.018</ele>
    <time>2010-11-23T19:25:57Z</time>
   </trkpt>
   <trkpt lat="32.745391" lon="35.234954">
    <ele>190.222</ele>
    <time>2010-11-23T19:26:15Z</time>
   </trkpt>
   <trkpt lat="32.745647" lon="35.235227">
    <ele>191.065</ele>
    <time>2010-11-23T19:26:29Z</time>
   </trkpt>
   <trkpt lat="32.745963" lon="35.235493">
    <ele>193.503</ele>
    <time>2010-11-23T19:26:46Z</time>
   </trkpt>
   <trkpt lat="32.746346" lon="35.235680">
    <ele>193.928</ele>
    <time>2010-11-23T19:27:02Z</time>
   </trkpt>
   <trkpt lat="32.746689" lon="35.235841">
    <ele>193.542</ele>
    <time>2010-11-23T19:27:13Z</time>
   </trkpt>
   <trkpt lat="32.746814" lon="35.235875">
    <ele>191.930</ele>
    <time>2010-11-23T19:27:16Z</time>
   </trkpt>
   <trkpt lat="32.747094" lon="35.236048">
    <ele>189.801</ele>
    <time>2010-11-23T19:27:23Z</time>
   </trkpt>
   <trkpt lat="32.747336" lon="35.236072">
    <ele>187.791</ele>
    <time>2010-11-23T19:27:28Z</time>
   </trkpt>
   <trkpt lat="32.747420" lon="35.236129">
    <ele>186.135</ele>
    <time>2010-11-23T19:27:30Z</time>
   </trkpt>
   <trkpt lat="32.747476" lon="35.236222">
    <ele>185.142</ele>
    <time>2010-11-23T19:27:32Z</time>
   </trkpt>
   <trkpt lat="32.747774" lon="35.236918">
    <ele>184.613</ele>
    <time>2010-11-23T19:27:47Z</time>
   </trkpt>
   <trkpt lat="32.747970" lon="35.237460">
    <ele>184.519</ele>
    <time>2010-11-23T19:28:02Z</time>
   </trkpt>
   <trkpt lat="32.748120" lon="35.237796">
    <ele>184.302</ele>
    <time>2010-11-23T19:28:10Z</time>
   </trkpt>
   <trkpt lat="32.748113" lon="35.238290">
    <ele>184.741</ele>
    <time>2010-11-23T19:28:22Z</time>
   </trkpt>
   <trkpt lat="32.748154" lon="35.238670">
    <ele>186.005</ele>
    <time>2010-11-23T19:28:33Z</time>
   </trkpt>
   <trkpt lat="32.748220" lon="35.238920">
    <ele>185.496</ele>
    <time>2010-11-23T19:28:40Z</time>
   </trkpt>
   <trkpt lat="32.748207" lon="35.239289">
    <ele>185.825</ele>
    <time>2010-11-23T19:28:51Z</time>
   </trkpt>
   <trkpt lat="32.748214" lon="35.239391">
    <ele>185.741</ele>
    <time>2010-11-23T19:28:56Z</time>
   </trkpt>
   <trkpt lat="32.748207" lon="35.239689">
    <ele>185.326</ele>
    <time>2010-11-23T19:29:05Z</time>
   </trkpt>
   <trkpt lat="32.748176" lon="35.240167">
    <ele>184.345</ele>
    <time>2010-11-23T19:29:17Z</time>
   </trkpt>
   <trkpt lat="32.748086" lon="35.240358">
    <ele>184.623</ele>
    <time>2010-11-23T19:29:23Z</time>
   </trkpt>
   <trkpt lat="32.747917" lon="35.240595">
    <ele>183.822</ele>
    <time>2010-11-23T19:29:32Z</time>
   </trkpt>
   <trkpt lat="32.747832" lon="35.240801">
    <ele>182.630</ele>
    <time>2010-11-23T19:29:39Z</time>
   </trkpt>
   <trkpt lat="32.747794" lon="35.240855">
    <ele>180.895</ele>
    <time>2010-11-23T19:29:42Z</time>
   </trkpt>
   <trkpt lat="32.747830" lon="35.241028">
    <ele>179.099</ele>
    <time>2010-11-23T19:29:46Z</time>
   </trkpt>
   <trkpt lat="32.747840" lon="35.241062">
    <ele>178.706</ele>
    <time>2010-11-23T19:29:49Z</time>
   </trkpt>
   <trkpt lat="32.747947" lon="35.241065">
    <ele>178.674</ele>
    <time>2010-11-23T19:29:55Z</time>
   </trkpt>
   <trkpt lat="32.748196" lon="35.240969">
    <ele>180.048</ele>
    <time>2010-11-23T19:30:10Z</time>
   </trkpt>
   <trkpt lat="32.748418" lon="35.241028">
    <ele>178.608</ele>
    <time>2010-11-23T19:30:20Z</time>
   </trkpt>
   <trkpt lat="32.748651" lon="35.241225">
    <ele>176.300</ele>
    <time>2010-11-23T19:30:29Z</time>
   </trkpt>
   <trkpt lat="32.749062" lon="35.241414">
    <ele>174.538</ele>
    <time>2010-11-23T19:30:41Z</time>
   </trkpt>
   <trkpt lat="32.749231" lon="35.241490">
    <ele>172.929</ele>
    <time>2010-11-23T19:30:45Z</time>
   </trkpt>
   <trkpt lat="32.749459" lon="35.241560">
    <ele>171.244</ele>
    <time>2010-11-23T19:30:51Z</time>
   </trkpt>
   <trkpt lat="32.749655" lon="35.241621">
    <ele>169.913</ele>
    <time>2010-11-23T19:30:55Z</time>
   </trkpt>
   <trkpt lat="32.750058" lon="35.241793">
    <ele>169.764</ele>
    <time>2010-11-23T19:31:07Z</time>
   </trkpt>
   <trkpt lat="32.750053" lon="35.241816">
    <ele>169.766</ele>
    <time>2010-11-23T19:31:18Z</time>
   </trkpt>
   <trkpt lat="32.750053" lon="35.241816">
    <ele>169.427</ele>
    <time>2010-11-23T19:31:30Z</time>
   </trkpt>
   <trkpt lat="32.749867" lon="35.241900">
    <ele>169.127</ele>
    <time>2010-11-23T19:31:37Z</time>
   </trkpt>
   <trkpt lat="32.749746" lon="35.241963">
    <ele>167.747</ele>
    <time>2010-11-23T19:31:41Z</time>
   </trkpt>
   <trkpt lat="32.749675" lon="35.242187">
    <ele>166.805</ele>
    <time>2010-11-23T19:31:46Z</time>
   </trkpt>
   <trkpt lat="32.749599" lon="35.242728">
    <ele>164.452</ele>
    <time>2010-11-23T19:31:57Z</time>
   </trkpt>
   <trkpt lat="32.749514" lon="35.242911">
    <ele>163.257</ele>
    <time>2010-11-23T19:32:01Z</time>
   </trkpt>
   <trkpt lat="32.749501" lon="35.243266">
    <ele>162.374</ele>
    <time>2010-11-23T19:32:09Z</time>
   </trkpt>
   <trkpt lat="32.749647" lon="35.243356">
    <ele>163.140</ele>
    <time>2010-11-23T19:32:14Z</time>
   </trkpt>
   <trkpt lat="32.750159" lon="35.243447">
    <ele>162.848</ele>
    <time>2010-11-23T19:32:30Z</time>
   </trkpt>
   <trkpt lat="32.750826" lon="35.243461">
    <ele>161.202</ele>
    <time>2010-11-23T19:32:49Z</time>
   </trkpt>
   <trkpt lat="32.751087" lon="35.243442">
    <ele>160.142</ele>
    <time>2010-11-23T19:33:00Z</time>
   </trkpt>
   <trkpt lat="32.751125" lon="35.243253">
    <ele>160.300</ele>
    <time>2010-11-23T19:33:05Z</time>
   </trkpt>
   <trkpt lat="32.750977" lon="35.242907">
    <ele>162.540</ele>
    <time>2010-11-23T19:33:21Z</time>
   </trkpt>
   <trkpt lat="32.750917" lon="35.242606">
    <ele>164.699</ele>
    <time>2010-11-23T19:33:34Z</time>
   </trkpt>
   <trkpt lat="32.750909" lon="35.242510">
    <ele>165.270</ele>
    <time>2010-11-23T19:33:41Z</time>
   </trkpt>
   <trkpt lat="32.750915" lon="35.242411">
    <ele>165.578</ele>
    <time>2010-11-23T19:33:47Z</time>
   </trkpt>
   <trkpt lat="32.750915" lon="35.242411">
    <ele>165.992</ele>
    <time>2010-11-23T19:33:51Z</time>
   </trkpt>
   <trkpt lat="32.750911" lon="35.242479">
    <ele>165.345</ele>
    <time>2010-11-23T19:33:55Z</time>
   </trkpt>
   <trkpt lat="32.750984" lon="35.242926">
    <ele>162.519</ele>
    <time>2010-11-23T19:34:06Z</time>
   </trkpt>
   <trkpt lat="32.751210" lon="35.243433">
    <ele>161.287</ele>
    <time>2010-11-23T19:34:17Z</time>
   </trkpt>
   <trkpt lat="32.751210" lon="35.243433">
    <ele>162.361</ele>
    <time>2010-11-23T19:34:20Z</time>
   </trkpt>
   <trkpt lat="32.751210" lon="35.243433">
    <ele>162.732</ele>
    <time>2010-11-23T19:34:26Z</time>
   </trkpt>
   <trkpt lat="32.751939" lon="35.243626">
    <ele>163.742</ele>
    <time>2010-11-23T19:34:34Z</time>
   </trkpt>
   <trkpt lat="32.752478" lon="35.243475">
    <ele>164.255</ele>
    <time>2010-11-23T19:34:45Z</time>
   </trkpt>
   <trkpt lat="32.752658" lon="35.243298">
    <ele>162.684</ele>
    <time>2010-11-23T19:34:54Z</time>
   </trkpt>
   <trkpt lat="32.752749" lon="35.243210">
    <ele>161.316</ele>
    <time>2010-11-23T19:34:57Z</time>
   </trkpt>
   <trkpt lat="32.752866" lon="35.243095">
    <ele>160.842</ele>
    <time>2010-11-23T19:35:01Z</time>
   </trkpt>
   <trkpt lat="32.752927" lon="35.243035">
    <ele>159.905</ele>
    <time>2010-11-23T19:35:03Z</time>
   </trkpt>
   <trkpt lat="32.752994" lon="35.242970">
    <ele>158.878</ele>
    <time>2010-11-23T19:35:05Z</time>
   </trkpt>
   <trkpt lat="32.753023" lon="35.242941">
    <ele>158.372</ele>
    <time>2010-11-23T19:35:06Z</time>
   </trkpt>
   <trkpt lat="32.753177" lon="35.242790">
    <ele>158.842</ele>
    <time>2010-11-23T19:35:18Z</time>
   </trkpt>
   <trkpt lat="32.753281" lon="35.242688">
    <ele>158.008</ele>
    <time>2010-11-23T19:35:26Z</time>
   </trkpt>
   <trkpt lat="32.753281" lon="35.242688">
    <ele>158.809</ele>
    <time>2010-11-23T19:35:38Z</time>
   </trkpt>
   <trkpt lat="32.753281" lon="35.242688">
    <ele>158.922</ele>
    <time>2010-11-23T19:35:41Z</time>
   </trkpt>
   <trkpt lat="32.753618" lon="35.242217">
    <ele>158.781</ele>
    <time>2010-11-23T19:35:53Z</time>
   </trkpt>
   <trkpt lat="32.753634" lon="35.242188">
    <ele>158.630</ele>
    <time>2010-11-23T19:35:57Z</time>
   </trkpt>
   <trkpt lat="32.753714" lon="35.242100">
    <ele>158.133</ele>
    <time>2010-11-23T19:36:01Z</time>
   </trkpt>
   <trkpt lat="32.754044" lon="35.241446">
    <ele>156.955</ele>
    <time>2010-11-23T19:36:11Z</time>
   </trkpt>
   <trkpt lat="32.754125" lon="35.241097">
    <ele>159.360</ele>
    <time>2010-11-23T19:36:24Z</time>
   </trkpt>
   <trkpt lat="32.754217" lon="35.240854">
    <ele>161.481</ele>
    <time>2010-11-23T19:36:35Z</time>
   </trkpt>
   <trkpt lat="32.754257" lon="35.240750">
    <ele>161.652</ele>
    <time>2010-11-23T19:36:41Z</time>
   </trkpt>
   <trkpt lat="32.753531" lon="35.239907">
    <ele>162.083</ele>
    <time>2010-11-23T19:36:53Z</time>
   </trkpt>
   <trkpt lat="32.753565" lon="35.239650">
    <ele>163.750</ele>
    <time>2010-11-23T19:37:02Z</time>
   </trkpt>
   <trkpt lat="32.753614" lon="35.239541">
    <ele>164.159</ele>
    <time>2010-11-23T19:37:06Z</time>
   </trkpt>
   <trkpt lat="32.753676" lon="35.239258">
    <ele>164.440</ele>
    <time>2010-11-23T19:37:15Z</time>
   </trkpt>
   <trkpt lat="32.753798" lon="35.238830">
    <ele>164.637</ele>
    <time>2010-11-23T19:37:28Z</time>
   </trkpt>
   <trkpt lat="32.753801" lon="35.238433">
    <ele>164.619</ele>
    <time>2010-11-23T19:37:40Z</time>
   </trkpt>
   <trkpt lat="32.753786" lon="35.238409">
    <ele>164.993</ele>
    <time>2010-11-23T19:37:41Z</time>
   </trkpt>
   <trkpt lat="32.753724" lon="35.238206">
    <ele>165.176</ele>
    <time>2010-11-23T19:37:48Z</time>
   </trkpt>
   <trkpt lat="32.753642" lon="35.237968">
    <ele>166.300</ele>
    <time>2010-11-23T19:37:56Z</time>
   </trkpt>
   <trkpt lat="32.753710" lon="35.237444">
    <ele>166.821</ele>
    <time>2010-11-23T19:38:11Z</time>
   </trkpt>
   <trkpt lat="32.753715" lon="35.237409">
    <ele>166.910</ele>
    <time>2010-11-23T19:38:12Z</time>
   </trkpt>
   <trkpt lat="32.753798" lon="35.237055">
    <ele>167.309</ele>
    <time>2010-11-23T19:38:23Z</time>
   </trkpt>
   <trkpt lat="32.753801" lon="35.236734">
    <ele>167.578</ele>
    <time>2010-11-23T19:38:33Z</time>
   </trkpt>
   <trkpt lat="32.753796" lon="35.236349">
    <ele>166.698</ele>
    <time>2010-11-23T19:38:44Z</time>
   </trkpt>
   <trkpt lat="32.753744" lon="35.235972">
    <ele>166.474</ele>
    <time>2010-11-23T19:38:54Z</time>
   </trkpt>
   <trkpt lat="32.753699" lon="35.235658">
    <ele>168.832</ele>
    <time>2010-11-23T19:39:05Z</time>
   </trkpt>
   <trkpt lat="32.753692" lon="35.235628">
    <ele>168.600</ele>
    <time>2010-11-23T19:39:06Z</time>
   </trkpt>
   <trkpt lat="32.753703" lon="35.235528">
    <ele>168.744</ele>
    <time>2010-11-23T19:39:11Z</time>
   </trkpt>
   <trkpt lat="32.753729" lon="35.235272">
    <ele>168.998</ele>
    <time>2010-11-23T19:39:22Z</time>
   </trkpt>
   <trkpt lat="32.753710" lon="35.234985">
    <ele>169.321</ele>
    <time>2010-11-23T19:39:32Z</time>
   </trkpt>
   <trkpt lat="32.753754" lon="35.234708">
    <ele>169.176</ele>
    <time>2010-11-23T19:39:42Z</time>
   </trkpt>
   <trkpt lat="32.753768" lon="35.234396">
    <ele>171.075</ele>
    <time>2010-11-23T19:39:54Z</time>
   </trkpt>
   <trkpt lat="32.753848" lon="35.234086">
    <ele>170.845</ele>
    <time>2010-11-23T19:40:05Z</time>
   </trkpt>
   <trkpt lat="32.753850" lon="35.234038">
    <ele>171.164</ele>
    <time>2010-11-23T19:40:07Z</time>
   </trkpt>
   <trkpt lat="32.753831" lon="35.233779">
    <ele>172.736</ele>
    <time>2010-11-23T19:40:17Z</time>
   </trkpt>
   <trkpt lat="32.753851" lon="35.233601">
    <ele>173.977</ele>
    <time>2010-11-23T19:40:25Z</time>
   </trkpt>
   <trkpt lat="32.753859" lon="35.233540">
    <ele>173.870</ele>
    <time>2010-11-23T19:40:27Z</time>
   </trkpt>
   <trkpt lat="32.753823" lon="35.233276">
    <ele>173.851</ele>
    <time>2010-11-23T19:40:37Z</time>
   </trkpt>
   <trkpt lat="32.753818" lon="35.233104">
    <ele>171.890</ele>
    <time>2010-11-23T19:40:42Z</time>
   </trkpt>
   <trkpt lat="32.753804" lon="35.233045">
    <ele>171.884</ele>
    <time>2010-11-23T19:40:44Z</time>
   </trkpt>
   <trkpt lat="32.753743" lon="35.232669">
    <ele>170.289</ele>
    <time>2010-11-23T19:40:56Z</time>
   </trkpt>
   <trkpt lat="32.753743" lon="35.232669">
    <ele>170.756</ele>
    <time>2010-11-23T19:41:39Z</time>
   </trkpt>
   <trkpt lat="32.754021" lon="35.233219">
    <ele>169.838</ele>
    <time>2010-11-23T19:41:58Z</time>
   </trkpt>
   <trkpt lat="32.753816" lon="35.231581">
    <ele>169.994</ele>
    <time>2010-11-23T19:42:14Z</time>
   </trkpt>
   <trkpt lat="32.753463" lon="35.231352">
    <ele>167.486</ele>
    <time>2010-11-23T19:42:25Z</time>
   </trkpt>
   <trkpt lat="32.753390" lon="35.231266">
    <ele>164.318</ele>
    <time>2010-11-23T19:42:34Z</time>
   </trkpt>
   <trkpt lat="32.753385" lon="35.231259">
    <ele>164.540</ele>
    <time>2010-11-23T19:42:35Z</time>
   </trkpt>
   <trkpt lat="32.753220" lon="35.231073">
    <ele>167.203</ele>
    <time>2010-11-23T19:42:50Z</time>
   </trkpt>
   <trkpt lat="32.753198" lon="35.230893">
    <ele>166.772</ele>
    <time>2010-11-23T19:42:56Z</time>
   </trkpt>
   <trkpt lat="32.753043" lon="35.230711">
    <ele>166.457</ele>
    <time>2010-11-23T19:43:07Z</time>
   </trkpt>
   <trkpt lat="32.752970" lon="35.230652">
    <ele>166.693</ele>
    <time>2010-11-23T19:43:11Z</time>
   </trkpt>
   <trkpt lat="32.752954" lon="35.230602">
    <ele>166.481</ele>
    <time>2010-11-23T19:43:13Z</time>
   </trkpt>
   <trkpt lat="32.752876" lon="35.230503">
    <ele>165.923</ele>
    <time>2010-11-23T19:43:17Z</time>
   </trkpt>
   <trkpt lat="32.752610" lon="35.230218">
    <ele>166.404</ele>
    <time>2010-11-23T19:43:30Z</time>
   </trkpt>
   <trkpt lat="32.752372" lon="35.230055">
    <ele>166.046</ele>
    <time>2010-11-23T19:43:41Z</time>
   </trkpt>
   <trkpt lat="32.752167" lon="35.230029">
    <ele>165.418</ele>
    <time>2010-11-23T19:43:51Z</time>
   </trkpt>
   <trkpt lat="32.751844" lon="35.230061">
    <ele>165.718</ele>
    <time>2010-11-23T19:44:03Z</time>
   </trkpt>
   <trkpt lat="32.751815" lon="35.230054">
    <ele>165.757</ele>
    <time>2010-11-23T19:44:04Z</time>
   </trkpt>
   <trkpt lat="32.751698" lon="35.230180">
    <ele>165.177</ele>
    <time>2010-11-23T19:44:10Z</time>
   </trkpt>
   <trkpt lat="32.751575" lon="35.230530">
    <ele>166.022</ele>
    <time>2010-11-23T19:44:22Z</time>
   </trkpt>
   <trkpt lat="32.751402" lon="35.230798">
    <ele>166.849</ele>
    <time>2010-11-23T19:44:33Z</time>
   </trkpt>
   <trkpt lat="32.751093" lon="35.231041">
    <ele>166.113</ele>
    <time>2010-11-23T19:44:45Z</time>
   </trkpt>
   <trkpt lat="32.750918" lon="35.231244">
    <ele>165.906</ele>
    <time>2010-11-23T19:44:54Z</time>
   </trkpt>
   <trkpt lat="32.750717" lon="35.231469">
    <ele>164.998</ele>
    <time>2010-11-23T19:45:06Z</time>
   </trkpt>
   <trkpt lat="32.750437" lon="35.231745">
    <ele>164.190</ele>
    <time>2010-11-23T19:45:18Z</time>
   </trkpt>
   <trkpt lat="32.750142" lon="35.231935">
    <ele>163.453</ele>
    <time>2010-11-23T19:45:30Z</time>
   </trkpt>
   <trkpt lat="32.749984" lon="35.232066">
    <ele>161.325</ele>
    <time>2010-11-23T19:45:37Z</time>
   </trkpt>
   <trkpt lat="32.749886" lon="35.232070">
    <ele>160.896</ele>
    <time>2010-11-23T19:45:41Z</time>
   </trkpt>
   <trkpt lat="32.749769" lon="35.232092">
    <ele>159.760</ele>
    <time>2010-11-23T19:45:45Z</time>
   </trkpt>
   <trkpt lat="32.749571" lon="35.232097">
    <ele>156.725</ele>
    <time>2010-11-23T19:45:51Z</time>
   </trkpt>
   <trkpt lat="32.749260" lon="35.232133">
    <ele>154.513</ele>
    <time>2010-11-23T19:46:01Z</time>
   </trkpt>
   <trkpt lat="32.749208" lon="35.232247">
    <ele>154.756</ele>
    <time>2010-11-23T19:46:06Z</time>
   </trkpt>
   <trkpt lat="32.749100" lon="35.232338">
    <ele>153.431</ele>
    <time>2010-11-23T19:46:12Z</time>
   </trkpt>
   <trkpt lat="32.749041" lon="35.232443">
    <ele>153.255</ele>
    <time>2010-11-23T19:46:24Z</time>
   </trkpt>
   <trkpt lat="32.749020" lon="35.232530">
    <ele>154.927</ele>
    <time>2010-11-23T19:46:34Z</time>
   </trkpt>
   <trkpt lat="32.748887" lon="35.232639">
    <ele>152.093</ele>
    <time>2010-11-23T19:46:41Z</time>
   </trkpt>
   <trkpt lat="32.748847" lon="35.232716">
    <ele>152.565</ele>
    <time>2010-11-23T19:46:45Z</time>
   </trkpt>
   <trkpt lat="32.748625" lon="35.232855">
    <ele>152.047</ele>
    <time>2010-11-23T19:46:57Z</time>
   </trkpt>
   <trkpt lat="32.748552" lon="35.232859">
    <ele>152.272</ele>
    <time>2010-11-23T19:47:01Z</time>
   </trkpt>
   <trkpt lat="32.748533" lon="35.232842">
    <ele>152.598</ele>
    <time>2010-11-23T19:47:03Z</time>
   </trkpt>
   <trkpt lat="32.748503" lon="35.232729">
    <ele>152.195</ele>
    <time>2010-11-23T19:47:09Z</time>
   </trkpt>
   <trkpt lat="32.748546" lon="35.232589">
    <ele>152.602</ele>
    <time>2010-11-23T19:47:14Z</time>
   </trkpt>
   <trkpt lat="32.748566" lon="35.232506">
    <ele>153.564</ele>
    <time>2010-11-23T19:47:17Z</time>
   </trkpt>
   <trkpt lat="32.748637" lon="35.232311">
    <ele>153.318</ele>
    <time>2010-11-23T19:47:24Z</time>
   </trkpt>
   <trkpt lat="32.748787" lon="35.231991">
    <ele>152.455</ele>
    <time>2010-11-23T19:47:36Z</time>
   </trkpt>
   <trkpt lat="32.748932" lon="35.231755">
    <ele>151.127</ele>
    <time>2010-11-23T19:47:45Z</time>
   </trkpt>
   <trkpt lat="32.749066" lon="35.231426">
    <ele>152.041</ele>
    <time>2010-11-23T19:47:56Z</time>
   </trkpt>
   <trkpt lat="32.749166" lon="35.231260">
    <ele>149.393</ele>
    <time>2010-11-23T19:48:01Z</time>
   </trkpt>
   <trkpt lat="32.749348" lon="35.230870">
    <ele>146.936</ele>
    <time>2010-11-23T19:48:11Z</time>
   </trkpt>
   <trkpt lat="32.749461" lon="35.230435">
    <ele>147.317</ele>
    <time>2010-11-23T19:48:23Z</time>
   </trkpt>
   <trkpt lat="32.749515" lon="35.230136">
    <ele>147.334</ele>
    <time>2010-11-23T19:48:34Z</time>
   </trkpt>
   <trkpt lat="32.749502" lon="35.230033">
    <ele>147.924</ele>
    <time>2010-11-23T19:48:44Z</time>
   </trkpt>
   <trkpt lat="32.749504" lon="35.229937">
    <ele>147.380</ele>
    <time>2010-11-23T19:48:50Z</time>
   </trkpt>
   <trkpt lat="32.749482" lon="35.229623">
    <ele>146.296</ele>
    <time>2010-11-23T19:49:02Z</time>
   </trkpt>
   <trkpt lat="32.749450" lon="35.229474">
    <ele>146.964</ele>
    <time>2010-11-23T19:49:07Z</time>
   </trkpt>
   <trkpt lat="32.749453" lon="35.229276">
    <ele>145.652</ele>
    <time>2010-11-23T19:49:14Z</time>
   </trkpt>
   <trkpt lat="32.749432" lon="35.229143">
    <ele>145.761</ele>
    <time>2010-11-23T19:49:18Z</time>
   </trkpt>
   <trkpt lat="32.749320" lon="35.228615">
    <ele>145.376</ele>
    <time>2010-11-23T19:49:32Z</time>
   </trkpt>
   <trkpt lat="32.749166" lon="35.228228">
    <ele>144.804</ele>
    <time>2010-11-23T19:49:43Z</time>
   </trkpt>
   <trkpt lat="32.749095" lon="35.228121">
    <ele>145.737</ele>
    <time>2010-11-23T19:49:47Z</time>
   </trkpt>
   <trkpt lat="32.748966" lon="35.227808">
    <ele>144.471</ele>
    <time>2010-11-23T19:49:58Z</time>
   </trkpt>
   <trkpt lat="32.748765" lon="35.227526">
    <ele>145.155</ele>
    <time>2010-11-23T19:50:10Z</time>
   </trkpt>
   <trkpt lat="32.748663" lon="35.227348">
    <ele>145.683</ele>
    <time>2010-11-23T19:50:16Z</time>
   </trkpt>
   <trkpt lat="32.748584" lon="35.227102">
    <ele>146.608</ele>
    <time>2010-11-23T19:50:24Z</time>
   </trkpt>
   <trkpt lat="32.748468" lon="35.226708">
    <ele>147.130</ele>
    <time>2010-11-23T19:50:37Z</time>
   </trkpt>
   <trkpt lat="32.748389" lon="35.226457">
    <ele>147.148</ele>
    <time>2010-11-23T19:50:46Z</time>
   </trkpt>
   <trkpt lat="32.748375" lon="35.226436">
    <ele>147.065</ele>
    <time>2010-11-23T19:50:47Z</time>
   </trkpt>
   <trkpt lat="32.748337" lon="35.226328">
    <ele>147.607</ele>
    <time>2010-11-23T19:51:00Z</time>
   </trkpt>
   <trkpt lat="32.748295" lon="35.226102">
    <ele>147.060</ele>
    <time>2010-11-23T19:51:09Z</time>
   </trkpt>
   <trkpt lat="32.748273" lon="35.225930">
    <ele>146.083</ele>
    <time>2010-11-23T19:51:18Z</time>
   </trkpt>
   <trkpt lat="32.748099" lon="35.225668">
    <ele>147.809</ele>
    <time>2010-11-23T19:51:31Z</time>
   </trkpt>
   <trkpt lat="32.748046" lon="35.225535">
    <ele>147.271</ele>
    <time>2010-11-23T19:51:36Z</time>
   </trkpt>
   <trkpt lat="32.747891" lon="35.225418">
    <ele>147.004</ele>
    <time>2010-11-23T19:51:44Z</time>
   </trkpt>
   <trkpt lat="32.747410" lon="35.225329">
    <ele>146.485</ele>
    <time>2010-11-23T19:52:00Z</time>
   </trkpt>
   <trkpt lat="32.747042" lon="35.225280">
    <ele>145.235</ele>
    <time>2010-11-23T19:52:13Z</time>
   </trkpt>
   <trkpt lat="32.746744" lon="35.225281">
    <ele>143.863</ele>
    <time>2010-11-23T19:52:24Z</time>
   </trkpt>
   <trkpt lat="32.746516" lon="35.225431">
    <ele>142.689</ele>
    <time>2010-11-23T19:52:34Z</time>
   </trkpt>
   <trkpt lat="32.746455" lon="35.225457">
    <ele>142.130</ele>
    <time>2010-11-23T19:52:36Z</time>
   </trkpt>
   <trkpt lat="32.746090" lon="35.225481">
    <ele>139.336</ele>
    <time>2010-11-23T19:52:45Z</time>
   </trkpt>
   <trkpt lat="32.746026" lon="35.225524">
    <ele>138.348</ele>
    <time>2010-11-23T19:52:47Z</time>
   </trkpt>
   <trkpt lat="32.745836" lon="35.225483">
    <ele>136.183</ele>
    <time>2010-11-23T19:52:54Z</time>
   </trkpt>
   <trkpt lat="32.745103" lon="35.225605">
    <ele>133.233</ele>
    <time>2010-11-23T19:53:10Z</time>
   </trkpt>
   <trkpt lat="32.745119" lon="35.225635">
    <ele>132.186</ele>
    <time>2010-11-23T19:53:21Z</time>
   </trkpt>
   <trkpt lat="32.745119" lon="35.225635">
    <ele>130.734</ele>
    <time>2010-11-23T19:54:09Z</time>
   </trkpt>
   <trkpt lat="32.745119" lon="35.225635">
    <ele>130.224</ele>
    <time>2010-11-23T19:54:51Z</time>
   </trkpt>
   <trkpt lat="32.745035" lon="35.225731">
    <ele>130.122</ele>
    <time>2010-11-23T19:54:55Z</time>
   </trkpt>
   <trkpt lat="32.744857" lon="35.226057">
    <ele>129.477</ele>
    <time>2010-11-23T19:55:11Z</time>
   </trkpt>
   <trkpt lat="32.744637" lon="35.226462">
    <ele>130.840</ele>
    <time>2010-11-23T19:55:30Z</time>
   </trkpt>
   <trkpt lat="32.744400" lon="35.226824">
    <ele>131.698</ele>
    <time>2010-11-23T19:55:48Z</time>
   </trkpt>
   <trkpt lat="32.744154" lon="35.227178">
    <ele>131.689</ele>
    <time>2010-11-23T19:56:04Z</time>
   </trkpt>
   <trkpt lat="32.743813" lon="35.227653">
    <ele>132.331</ele>
    <time>2010-11-23T19:56:25Z</time>
   </trkpt>
   <trkpt lat="32.743437" lon="35.228090">
    <ele>132.911</ele>
    <time>2010-11-23T19:56:44Z</time>
   </trkpt>
   <trkpt lat="32.743065" lon="35.228443">
    <ele>132.834</ele>
    <time>2010-11-23T19:57:00Z</time>
   </trkpt>
   <trkpt lat="32.742685" lon="35.228804">
    <ele>133.288</ele>
    <time>2010-11-23T19:57:17Z</time>
   </trkpt>
   <trkpt lat="32.742299" lon="35.229179">
    <ele>134.468</ele>
    <time>2010-11-23T19:57:37Z</time>
   </trkpt>
   <trkpt lat="32.741866" lon="35.229599">
    <ele>135.942</ele>
    <time>2010-11-23T19:57:59Z</time>
   </trkpt>
   <trkpt lat="32.741454" lon="35.229999">
    <ele>137.076</ele>
    <time>2010-11-23T19:58:19Z</time>
   </trkpt>
   <trkpt lat="32.740999" lon="35.230474">
    <ele>137.353</ele>
    <time>2010-11-23T19:58:38Z</time>
   </trkpt>
   <trkpt lat="32.740616" lon="35.230896">
    <ele>137.584</ele>
    <time>2010-11-23T19:58:58Z</time>
   </trkpt>
   <trkpt lat="32.740283" lon="35.231235">
    <ele>138.461</ele>
    <time>2010-11-23T19:59:15Z</time>
   </trkpt>
   <trkpt lat="32.739850" lon="35.231675">
    <ele>139.535</ele>
    <time>2010-11-23T19:59:36Z</time>
   </trkpt>
   <trkpt lat="32.739488" lon="35.232042">
    <ele>139.974</ele>
    <time>2010-11-23T19:59:55Z</time>
   </trkpt>
   <trkpt lat="32.739229" lon="35.232423">
    <ele>140.495</ele>
    <time>2010-11-23T20:00:13Z</time>
   </trkpt>
   <trkpt lat="32.739193" lon="35.232704">
    <ele>140.545</ele>
    <time>2010-11-23T20:00:31Z</time>
   </trkpt>
   <trkpt lat="32.739319" lon="35.233167">
    <ele>141.437</ele>
    <time>2010-11-23T20:00:48Z</time>
   </trkpt>
   <trkpt lat="32.739603" lon="35.233614">
    <ele>141.374</ele>
    <time>2010-11-23T20:01:09Z</time>
   </trkpt>
   <trkpt lat="32.739889" lon="35.234029">
    <ele>141.823</ele>
    <time>2010-11-23T20:01:27Z</time>
   </trkpt>
   <trkpt lat="32.740221" lon="35.234465">
    <ele>142.440</ele>
    <time>2010-11-23T20:01:46Z</time>
   </trkpt>
   <trkpt lat="32.740556" lon="35.234904">
    <ele>143.743</ele>
    <time>2010-11-23T20:02:06Z</time>
   </trkpt>
   <trkpt lat="32.740872" lon="35.235319">
    <ele>144.575</ele>
    <time>2010-11-23T20:02:25Z</time>
   </trkpt>
   <trkpt lat="32.741178" lon="35.235720">
    <ele>145.043</ele>
    <time>2010-11-23T20:02:43Z</time>
   </trkpt>
   <trkpt lat="32.741510" lon="35.236156">
    <ele>145.384</ele>
    <time>2010-11-23T20:03:02Z</time>
   </trkpt>
   <trkpt lat="32.741806" lon="35.236544">
    <ele>145.991</ele>
    <time>2010-11-23T20:03:20Z</time>
   </trkpt>
   <trkpt lat="32.742233" lon="35.237151">
    <ele>146.775</ele>
    <time>2010-11-23T20:03:42Z</time>
   </trkpt>
   <trkpt lat="32.742514" lon="35.237762">
    <ele>147.785</ele>
    <time>2010-11-23T20:04:00Z</time>
   </trkpt>
   <trkpt lat="32.742696" lon="35.238182">
    <ele>147.643</ele>
    <time>2010-11-23T20:04:14Z</time>
   </trkpt>
   <trkpt lat="32.742939" lon="35.238615">
    <ele>147.851</ele>
    <time>2010-11-23T20:04:30Z</time>
   </trkpt>
   <trkpt lat="32.743273" lon="35.239141">
    <ele>148.698</ele>
    <time>2010-11-23T20:04:50Z</time>
   </trkpt>
   <trkpt lat="32.743681" lon="35.239673">
    <ele>149.507</ele>
    <time>2010-11-23T20:05:11Z</time>
   </trkpt>
   <trkpt lat="32.744012" lon="35.240106">
    <ele>149.915</ele>
    <time>2010-11-23T20:05:28Z</time>
   </trkpt>
   <trkpt lat="32.744361" lon="35.240562">
    <ele>151.370</ele>
    <time>2010-11-23T20:05:46Z</time>
   </trkpt>
   <trkpt lat="32.744792" lon="35.241008">
    <ele>152.235</ele>
    <time>2010-11-23T20:06:05Z</time>
   </trkpt>
   <trkpt lat="32.745182" lon="35.241429">
    <ele>152.623</ele>
    <time>2010-11-23T20:06:23Z</time>
   </trkpt>
   <trkpt lat="32.745540" lon="35.241754">
    <ele>152.445</ele>
    <time>2010-11-23T20:06:41Z</time>
   </trkpt>
   <trkpt lat="32.745545" lon="35.241759">
    <ele>152.690</ele>
    <time>2010-11-23T20:06:42Z</time>
   </trkpt>
   <trkpt lat="32.745416" lon="35.241952">
    <ele>153.213</ele>
    <time>2010-11-23T20:06:54Z</time>
   </trkpt>
   <trkpt lat="32.745692" lon="35.242225">
    <ele>153.067</ele>
    <time>2010-11-23T20:07:08Z</time>
   </trkpt>
   <trkpt lat="32.745717" lon="35.242306">
    <ele>154.481</ele>
    <time>2010-11-23T20:07:12Z</time>
   </trkpt>
   <trkpt lat="32.745717" lon="35.242418">
    <ele>155.026</ele>
    <time>2010-11-23T20:07:20Z</time>
   </trkpt>
   <trkpt lat="32.745429" lon="35.242431">
    <ele>154.681</ele>
    <time>2010-11-23T20:07:30Z</time>
   </trkpt>
   <trkpt lat="32.745170" lon="35.242393">
    <ele>154.894</ele>
    <time>2010-11-23T20:07:48Z</time>
   </trkpt>
   <trkpt lat="32.745158" lon="35.242389">
    <ele>155.056</ele>
    <time>2010-11-23T20:07:49Z</time>
   </trkpt>
   <trkpt lat="32.745159" lon="35.242445">
    <ele>155.061</ele>
    <time>2010-11-23T20:07:54Z</time>
   </trkpt>
   <trkpt lat="32.745147" lon="35.242543">
    <ele>154.628</ele>
    <time>2010-11-23T20:07:59Z</time>
   </trkpt>
   <trkpt lat="32.745481" lon="35.242953">
    <ele>155.370</ele>
    <time>2010-11-23T20:08:19Z</time>
   </trkpt>
   <trkpt lat="32.745709" lon="35.243196">
    <ele>155.727</ele>
    <time>2010-11-23T20:08:31Z</time>
   </trkpt>
   <trkpt lat="32.745759" lon="35.243368">
    <ele>155.838</ele>
    <time>2010-11-23T20:08:41Z</time>
   </trkpt>
   <trkpt lat="32.745759" lon="35.243368">
    <ele>156.409</ele>
    <time>2010-11-23T20:08:53Z</time>
   </trkpt>
   <trkpt lat="32.745789" lon="35.243434">
    <ele>157.622</ele>
    <time>2010-11-23T20:08:58Z</time>
   </trkpt>
   <trkpt lat="32.745829" lon="35.243734">
    <ele>158.501</ele>
    <time>2010-11-23T20:09:12Z</time>
   </trkpt>
   <trkpt lat="32.745832" lon="35.243930">
    <ele>159.055</ele>
    <time>2010-11-23T20:09:20Z</time>
   </trkpt>
   <trkpt lat="32.745838" lon="35.243803">
    <ele>160.157</ele>
    <time>2010-11-23T20:09:29Z</time>
   </trkpt>
   <trkpt lat="32.745834" lon="35.243773">
    <ele>160.541</ele>
    <time>2010-11-23T20:09:31Z</time>
   </trkpt>
   <trkpt lat="32.745840" lon="35.243823">
    <ele>160.727</ele>
    <time>2010-11-23T20:09:40Z</time>
   </trkpt>
   <trkpt lat="32.745818" lon="35.243999">
    <ele>161.019</ele>
    <time>2010-11-23T20:09:44Z</time>
   </trkpt>
   <trkpt lat="32.745652" lon="35.244527">
    <ele>163.290</ele>
    <time>2010-11-23T20:10:04Z</time>
   </trkpt>
   <trkpt lat="32.745652" lon="35.244963">
    <ele>163.083</ele>
    <time>2010-11-23T20:10:17Z</time>
   </trkpt>
   <trkpt lat="32.745652" lon="35.245030">
    <ele>164.034</ele>
    <time>2010-11-23T20:10:21Z</time>
   </trkpt>
   <trkpt lat="32.745426" lon="35.245061">
    <ele>164.383</ele>
    <time>2010-11-23T20:10:28Z</time>
   </trkpt>
   <trkpt lat="32.745403" lon="35.245099">
    <ele>165.002</ele>
    <time>2010-11-23T20:10:31Z</time>
   </trkpt>
   <trkpt lat="32.745358" lon="35.245071">
    <ele>165.722</ele>
    <time>2010-11-23T20:10:35Z</time>
   </trkpt>
   <trkpt lat="32.745242" lon="35.245073">
    <ele>167.528</ele>
    <time>2010-11-23T20:10:44Z</time>
   </trkpt>
   <trkpt lat="32.745042" lon="35.245092">
    <ele>170.346</ele>
    <time>2010-11-23T20:10:56Z</time>
   </trkpt>
   <trkpt lat="32.744974" lon="35.245098">
    <ele>170.628</ele>
    <time>2010-11-23T20:11:00Z</time>
   </trkpt>
   <trkpt lat="32.744906" lon="35.245120">
    <ele>171.076</ele>
    <time>2010-11-23T20:11:04Z</time>
   </trkpt>
   <trkpt lat="32.744815" lon="35.245134">
    <ele>171.510</ele>
    <time>2010-11-23T20:11:09Z</time>
   </trkpt>
   <trkpt lat="32.744765" lon="35.245113">
    <ele>172.929</ele>
    <time>2010-11-23T20:11:12Z</time>
   </trkpt>
   <trkpt lat="32.744485" lon="35.245081">
    <ele>173.950</ele>
    <time>2010-11-23T20:11:28Z</time>
   </trkpt>
   <trkpt lat="32.744253" lon="35.245096">
    <ele>175.595</ele>
    <time>2010-11-23T20:11:40Z</time>
   </trkpt>
   <trkpt lat="32.744234" lon="35.245095">
    <ele>175.749</ele>
    <time>2010-11-23T20:11:41Z</time>
   </trkpt>
   <trkpt lat="32.744144" lon="35.245094">
    <ele>176.223</ele>
    <time>2010-11-23T20:11:46Z</time>
   </trkpt>
   <trkpt lat="32.744053" lon="35.245096">
    <ele>177.840</ele>
    <time>2010-11-23T20:11:51Z</time>
   </trkpt>
   <trkpt lat="32.743746" lon="35.245333">
    <ele>175.895</ele>
    <time>2010-11-23T20:12:05Z</time>
   </trkpt>
   <trkpt lat="32.743648" lon="35.245458">
    <ele>175.864</ele>
    <time>2010-11-23T20:12:09Z</time>
   </trkpt>
   <trkpt lat="32.743528" lon="35.245573">
    <ele>175.138</ele>
    <time>2010-11-23T20:12:13Z</time>
   </trkpt>
   <trkpt lat="32.743196" lon="35.245799">
    <ele>176.136</ele>
    <time>2010-11-23T20:12:27Z</time>
   </trkpt>
   <trkpt lat="32.742930" lon="35.245846">
    <ele>178.295</ele>
    <time>2010-11-23T20:12:38Z</time>
   </trkpt>
   <trkpt lat="32.742631" lon="35.245853">
    <ele>180.983</ele>
    <time>2010-11-23T20:12:53Z</time>
   </trkpt>
   <trkpt lat="32.742385" lon="35.245844">
    <ele>180.949</ele>
    <time>2010-11-23T20:13:04Z</time>
   </trkpt>
   <trkpt lat="32.742296" lon="35.245892">
    <ele>180.646</ele>
    <time>2010-11-23T20:13:08Z</time>
   </trkpt>
   <trkpt lat="32.742236" lon="35.245912">
    <ele>180.732</ele>
    <time>2010-11-23T20:13:10Z</time>
   </trkpt>
   <trkpt lat="32.742133" lon="35.245896">
    <ele>180.949</ele>
    <time>2010-11-23T20:13:14Z</time>
   </trkpt>
   <trkpt lat="32.741826" lon="35.245922">
    <ele>181.957</ele>
    <time>2010-11-23T20:13:28Z</time>
   </trkpt>
   <trkpt lat="32.741599" lon="35.246042">
    <ele>180.973</ele>
    <time>2010-11-23T20:13:37Z</time>
   </trkpt>
   <trkpt lat="32.741526" lon="35.246099">
    <ele>180.939</ele>
    <time>2010-11-23T20:13:39Z</time>
   </trkpt>
   <trkpt lat="32.741377" lon="35.246167">
    <ele>179.550</ele>
    <time>2010-11-23T20:13:42Z</time>
   </trkpt>
   <trkpt lat="32.741199" lon="35.246223">
    <ele>180.686</ele>
    <time>2010-11-23T20:13:49Z</time>
   </trkpt>
   <trkpt lat="32.740920" lon="35.246472">
    <ele>180.604</ele>
    <time>2010-11-23T20:14:01Z</time>
   </trkpt>
   <trkpt lat="32.740868" lon="35.246499">
    <ele>181.041</ele>
    <time>2010-11-23T20:14:04Z</time>
   </trkpt>
   <trkpt lat="32.740694" lon="35.246742">
    <ele>178.483</ele>
    <time>2010-11-23T20:14:12Z</time>
   </trkpt>
   <trkpt lat="32.740649" lon="35.247043">
    <ele>179.118</ele>
    <time>2010-11-23T20:14:18Z</time>
   </trkpt>
   <trkpt lat="32.740496" lon="35.247371">
    <ele>179.344</ele>
    <time>2010-11-23T20:14:30Z</time>
   </trkpt>
   <trkpt lat="32.740386" lon="35.247774">
    <ele>179.491</ele>
    <time>2010-11-23T20:14:43Z</time>
   </trkpt>
   <trkpt lat="32.740300" lon="35.248106">
    <ele>179.948</ele>
    <time>2010-11-23T20:14:55Z</time>
   </trkpt>
   <trkpt lat="32.740178" lon="35.248535">
    <ele>178.792</ele>
    <time>2010-11-23T20:15:05Z</time>
   </trkpt>
   <trkpt lat="32.740034" lon="35.248941">
    <ele>178.805</ele>
    <time>2010-11-23T20:15:17Z</time>
   </trkpt>
   <trkpt lat="32.739914" lon="35.249342">
    <ele>178.089</ele>
    <time>2010-11-23T20:15:28Z</time>
   </trkpt>
   <trkpt lat="32.739890" lon="35.249391">
    <ele>177.944</ele>
    <time>2010-11-23T20:15:29Z</time>
   </trkpt>
   <trkpt lat="32.739767" lon="35.249591">
    <ele>177.158</ele>
    <time>2010-11-23T20:15:37Z</time>
   </trkpt>
   <trkpt lat="32.739691" lon="35.249627">
    <ele>178.155</ele>
    <time>2010-11-23T20:15:41Z</time>
   </trkpt>
   <trkpt lat="32.739640" lon="35.249663">
    <ele>178.854</ele>
    <time>2010-11-23T20:15:44Z</time>
   </trkpt>
   <trkpt lat="32.739554" lon="35.249640">
    <ele>179.476</ele>
    <time>2010-11-23T20:15:50Z</time>
   </trkpt>
   <trkpt lat="32.739353" lon="35.249658">
    <ele>181.437</ele>
    <time>2010-11-23T20:16:04Z</time>
   </trkpt>
   <trkpt lat="32.739139" lon="35.249686">
    <ele>183.873</ele>
    <time>2010-11-23T20:16:17Z</time>
   </trkpt>
   <trkpt lat="32.739076" lon="35.249712">
    <ele>184.157</ele>
    <time>2010-11-23T20:16:21Z</time>
   </trkpt>
   <trkpt lat="32.738845" lon="35.249772">
    <ele>184.370</ele>
    <time>2010-11-23T20:16:35Z</time>
   </trkpt>
   <trkpt lat="32.738826" lon="35.249769">
    <ele>184.953</ele>
    <time>2010-11-23T20:16:36Z</time>
   </trkpt>
   <trkpt lat="32.738768" lon="35.249731">
    <ele>186.353</ele>
    <time>2010-11-23T20:16:40Z</time>
   </trkpt>
   <trkpt lat="32.738746" lon="35.249596">
    <ele>188.011</ele>
    <time>2010-11-23T20:16:47Z</time>
   </trkpt>
   <trkpt lat="32.738877" lon="35.249294">
    <ele>191.247</ele>
    <time>2010-11-23T20:17:04Z</time>
   </trkpt>
   <trkpt lat="32.739020" lon="35.249118">
    <ele>192.887</ele>
    <time>2010-11-23T20:17:18Z</time>
   </trkpt>
   <trkpt lat="32.739148" lon="35.248938">
    <ele>194.781</ele>
    <time>2010-11-23T20:17:31Z</time>
   </trkpt>
   <trkpt lat="32.739303" lon="35.248682">
    <ele>195.912</ele>
    <time>2010-11-23T20:17:46Z</time>
   </trkpt>
   <trkpt lat="32.739412" lon="35.248455">
    <ele>198.023</ele>
    <time>2010-11-23T20:18:02Z</time>
   </trkpt>
   <trkpt lat="32.739456" lon="35.248351">
    <ele>198.955</ele>
    <time>2010-11-23T20:18:10Z</time>
   </trkpt>
   <trkpt lat="32.739501" lon="35.248194">
    <ele>200.916</ele>
    <time>2010-11-23T20:18:20Z</time>
   </trkpt>
   <trkpt lat="32.739518" lon="35.248149">
    <ele>202.302</ele>
    <time>2010-11-23T20:18:23Z</time>
   </trkpt>
   <trkpt lat="32.739553" lon="35.248066">
    <ele>202.911</ele>
    <time>2010-11-23T20:18:30Z</time>
   </trkpt>
   <trkpt lat="32.739565" lon="35.248028">
    <ele>204.304</ele>
    <time>2010-11-23T20:18:33Z</time>
   </trkpt>
   <trkpt lat="32.739562" lon="35.247883">
    <ele>204.514</ele>
    <time>2010-11-23T20:18:44Z</time>
   </trkpt>
   <trkpt lat="32.739532" lon="35.247833">
    <ele>205.021</ele>
    <time>2010-11-23T20:18:48Z</time>
   </trkpt>
   <trkpt lat="32.739403" lon="35.247737">
    <ele>208.598</ele>
    <time>2010-11-23T20:19:02Z</time>
   </trkpt>
   <trkpt lat="32.739286" lon="35.247681">
    <ele>210.172</ele>
    <time>2010-11-23T20:19:14Z</time>
   </trkpt>
   <trkpt lat="32.739128" lon="35.247597">
    <ele>213.200</ele>
    <time>2010-11-23T20:19:30Z</time>
   </trkpt>
   <trkpt lat="32.739013" lon="35.247467">
    <ele>215.341</ele>
    <time>2010-11-23T20:19:45Z</time>
   </trkpt>
   <trkpt lat="32.738958" lon="35.247419">
    <ele>217.139</ele>
    <time>2010-11-23T20:19:51Z</time>
   </trkpt>
   <trkpt lat="32.738860" lon="35.247296">
    <ele>219.105</ele>
    <time>2010-11-23T20:20:06Z</time>
   </trkpt>
   <trkpt lat="32.738754" lon="35.247197">
    <ele>220.185</ele>
    <time>2010-11-23T20:20:22Z</time>
   </trkpt>
   <trkpt lat="32.738626" lon="35.247124">
    <ele>222.590</ele>
    <time>2010-11-23T20:20:39Z</time>
   </trkpt>
   <trkpt lat="32.738600" lon="35.247130">
    <ele>222.711</ele>
    <time>2010-11-23T20:20:42Z</time>
   </trkpt>
   <trkpt lat="32.738434" lon="35.247158">
    <ele>226.332</ele>
    <time>2010-11-23T20:20:59Z</time>
   </trkpt>
   <trkpt lat="32.738170" lon="35.247127">
    <ele>226.352</ele>
    <time>2010-11-23T20:21:18Z</time>
   </trkpt>
   <trkpt lat="32.737907" lon="35.247015">
    <ele>228.357</ele>
    <time>2010-11-23T20:21:34Z</time>
   </trkpt>
   <trkpt lat="32.737680" lon="35.247264">
    <ele>228.874</ele>
    <time>2010-11-23T20:21:49Z</time>
   </trkpt>
   <trkpt lat="32.737478" lon="35.247608">
    <ele>229.045</ele>
    <time>2010-11-23T20:22:07Z</time>
   </trkpt>
   <trkpt lat="32.737330" lon="35.247924">
    <ele>229.141</ele>
    <time>2010-11-23T20:22:23Z</time>
   </trkpt>
   <trkpt lat="32.737198" lon="35.248167">
    <ele>230.749</ele>
    <time>2010-11-23T20:22:39Z</time>
   </trkpt>
   <trkpt lat="32.737009" lon="35.248456">
    <ele>231.376</ele>
    <time>2010-11-23T20:22:57Z</time>
   </trkpt>
   <trkpt lat="32.736903" lon="35.248629">
    <ele>232.859</ele>
    <time>2010-11-23T20:23:08Z</time>
   </trkpt>
   <trkpt lat="32.736751" lon="35.248922">
    <ele>235.213</ele>
    <time>2010-11-23T20:23:23Z</time>
   </trkpt>
   <trkpt lat="32.736685" lon="35.249221">
    <ele>236.213</ele>
    <time>2010-11-23T20:23:41Z</time>
   </trkpt>
   <trkpt lat="32.736600" lon="35.249415">
    <ele>238.359</ele>
    <time>2010-11-23T20:23:56Z</time>
   </trkpt>
   <trkpt lat="32.736571" lon="35.249544">
    <ele>241.357</ele>
    <time>2010-11-23T20:24:07Z</time>
   </trkpt>
   <trkpt lat="32.736512" lon="35.249713">
    <ele>244.308</ele>
    <time>2010-11-23T20:24:23Z</time>
   </trkpt>
   <trkpt lat="32.736496" lon="35.249747">
    <ele>244.124</ele>
    <time>2010-11-23T20:24:43Z</time>
   </trkpt>
   <trkpt lat="32.736476" lon="35.249774">
    <ele>245.004</ele>
    <time>2010-11-23T20:24:46Z</time>
   </trkpt>
   <trkpt lat="32.736409" lon="35.249785">
    <ele>245.052</ele>
    <time>2010-11-23T20:25:01Z</time>
   </trkpt>
   <trkpt lat="32.736405" lon="35.249783">
    <ele>244.828</ele>
    <time>2010-11-23T20:25:02Z</time>
   </trkpt>
   <trkpt lat="32.736318" lon="35.249737">
    <ele>244.776</ele>
    <time>2010-11-23T20:25:09Z</time>
   </trkpt>
   <trkpt lat="32.735889" lon="35.249600">
    <ele>244.040</ele>
    <time>2010-11-23T20:25:23Z</time>
   </trkpt>
   <trkpt lat="32.735710" lon="35.249547">
    <ele>240.990</ele>
    <time>2010-11-23T20:25:26Z</time>
   </trkpt>
   <trkpt lat="32.735578" lon="35.249507">
    <ele>239.755</ele>
    <time>2010-11-23T20:25:28Z</time>
   </trkpt>
   <trkpt lat="32.735267" lon="35.249375">
    <ele>235.899</ele>
    <time>2010-11-23T20:25:33Z</time>
   </trkpt>
   <trkpt lat="32.735010" lon="35.249152">
    <ele>232.864</ele>
    <time>2010-11-23T20:25:38Z</time>
   </trkpt>
   <trkpt lat="32.734819" lon="35.248929">
    <ele>230.140</ele>
    <time>2010-11-23T20:25:42Z</time>
   </trkpt>
   <trkpt lat="32.734628" lon="35.248592">
    <ele>227.632</ele>
    <time>2010-11-23T20:25:47Z</time>
   </trkpt>
   <trkpt lat="32.734537" lon="35.248432">
    <ele>225.446</ele>
    <time>2010-11-23T20:25:52Z</time>
   </trkpt>
   <trkpt lat="32.734866" lon="35.248074">
    <ele>222.547</ele>
    <time>2010-11-23T20:25:59Z</time>
   </trkpt>
   <trkpt lat="32.734941" lon="35.248013">
    <ele>222.291</ele>
    <time>2010-11-23T20:26:06Z</time>
   </trkpt>
   <trkpt lat="32.734941" lon="35.248013">
    <ele>221.662</ele>
    <time>2010-11-23T20:26:25Z</time>
   </trkpt>
   <trkpt lat="32.734941" lon="35.248013">
    <ele>221.013</ele>
    <time>2010-11-23T20:26:37Z</time>
   </trkpt>
  </trkseg>
 </trk>
</gpx>
